<?xml version="1.0" encoding="UTF-8" standalone="no" ?>
<gpx xmlns="http://www.topografix.com/GPX/1/1" xmlns:xsi="http://www.w3.org/2001/XMLSchema-instance" xsi:schemaLocation="http://www.topografix.com/GPX/1/1 http://www.topografix.com/GPX/1/1/gpx.xsd" version="1.1" creator="VisuGPX - https://www.visugpx.com">
  <metadata>
    <name>Rando de Fronsac aprés-midi</name>
    <desc><![CDATA[Rando de Fronsac après-midi le 12 11 2017]]></desc>
  </metadata>
  <trk>
    <name><![CDATA[Tracé 12 nov. 2017 2:01:02 PM]]></name>
    <trkseg>
      <trkpt lat="44.93291" lon="-0.28428">
        <ele>-11.6</ele>
        <time>2017-11-12T13:01:02Z</time>
      </trkpt>
      <trkpt lat="44.93285" lon="-0.28435">
        <ele>-13.7</ele>
        <time>2017-11-12T13:02:18Z</time>
      </trkpt>
      <trkpt lat="44.93275" lon="-0.28428">
        <ele>-10.6</ele>
        <time>2017-11-12T13:02:22Z</time>
      </trkpt>
      <trkpt lat="44.9327" lon="-0.28431">
        <ele>-9</ele>
        <time>2017-11-12T13:04:44Z</time>
      </trkpt>
      <trkpt lat="44.93266" lon="-0.28424">
        <ele>-8.1</ele>
        <time>2017-11-12T13:04:57Z</time>
      </trkpt>
      <trkpt lat="44.93258" lon="-0.28418">
        <ele>-7.8</ele>
        <time>2017-11-12T13:05:06Z</time>
      </trkpt>
      <trkpt lat="44.93251" lon="-0.28414">
        <ele>-7.4</ele>
        <time>2017-11-12T13:05:18Z</time>
      </trkpt>
      <trkpt lat="44.93246" lon="-0.28403">
        <ele>1.3</ele>
        <time>2017-11-12T13:06:19Z</time>
      </trkpt>
      <trkpt lat="44.93246" lon="-0.28392">
        <ele>7</ele>
        <time>2017-11-12T13:06:41Z</time>
      </trkpt>
      <trkpt lat="44.93248" lon="-0.2838">
        <ele>6.7</ele>
        <time>2017-11-12T13:06:50Z</time>
      </trkpt>
      <trkpt lat="44.93251" lon="-0.28368">
        <ele>7.2</ele>
        <time>2017-11-12T13:06:57Z</time>
      </trkpt>
      <trkpt lat="44.93254" lon="-0.28358">
        <ele>7.3</ele>
        <time>2017-11-12T13:07:03Z</time>
      </trkpt>
      <trkpt lat="44.93258" lon="-0.28347">
        <ele>6.6</ele>
        <time>2017-11-12T13:07:10Z</time>
      </trkpt>
      <trkpt lat="44.93262" lon="-0.28336">
        <ele>6.9</ele>
        <time>2017-11-12T13:07:17Z</time>
      </trkpt>
      <trkpt lat="44.93266" lon="-0.28326">
        <ele>7.3</ele>
        <time>2017-11-12T13:07:24Z</time>
      </trkpt>
      <trkpt lat="44.9327" lon="-0.28316">
        <ele>6.7</ele>
        <time>2017-11-12T13:07:31Z</time>
      </trkpt>
      <trkpt lat="44.93275" lon="-0.28305">
        <ele>6.6</ele>
        <time>2017-11-12T13:07:37Z</time>
      </trkpt>
      <trkpt lat="44.93278" lon="-0.28296">
        <ele>6.1</ele>
        <time>2017-11-12T13:07:42Z</time>
      </trkpt>
      <trkpt lat="44.93282" lon="-0.28286">
        <ele>4.2</ele>
        <time>2017-11-12T13:07:48Z</time>
      </trkpt>
      <trkpt lat="44.93287" lon="-0.28277">
        <ele>2.3</ele>
        <time>2017-11-12T13:07:54Z</time>
      </trkpt>
      <trkpt lat="44.93291" lon="-0.28267">
        <ele>1.4</ele>
        <time>2017-11-12T13:08:00Z</time>
      </trkpt>
      <trkpt lat="44.93295" lon="-0.28258">
        <ele>0.6</ele>
        <time>2017-11-12T13:08:05Z</time>
      </trkpt>
      <trkpt lat="44.93299" lon="-0.28247">
        <ele>-0.6</ele>
        <time>2017-11-12T13:08:11Z</time>
      </trkpt>
      <trkpt lat="44.93305" lon="-0.28239">
        <ele>0.8</ele>
        <time>2017-11-12T13:08:19Z</time>
      </trkpt>
      <trkpt lat="44.93313" lon="-0.28244">
        <ele>-0.8</ele>
        <time>2017-11-12T13:08:26Z</time>
      </trkpt>
      <trkpt lat="44.9332" lon="-0.2825">
        <ele>-1.2</ele>
        <time>2017-11-12T13:08:32Z</time>
      </trkpt>
      <trkpt lat="44.93328" lon="-0.28254">
        <ele>-0.1</ele>
        <time>2017-11-12T13:08:37Z</time>
      </trkpt>
      <trkpt lat="44.93334" lon="-0.28259">
        <ele>1.6</ele>
        <time>2017-11-12T13:08:42Z</time>
      </trkpt>
      <trkpt lat="44.93342" lon="-0.28265">
        <ele>3.4</ele>
        <time>2017-11-12T13:08:49Z</time>
      </trkpt>
      <trkpt lat="44.93348" lon="-0.28273">
        <ele>3.7</ele>
        <time>2017-11-12T13:08:56Z</time>
      </trkpt>
      <trkpt lat="44.93355" lon="-0.28281">
        <ele>4.4</ele>
        <time>2017-11-12T13:09:02Z</time>
      </trkpt>
      <trkpt lat="44.93361" lon="-0.28289">
        <ele>4.1</ele>
        <time>2017-11-12T13:09:08Z</time>
      </trkpt>
      <trkpt lat="44.93368" lon="-0.28297">
        <ele>5.4</ele>
        <time>2017-11-12T13:09:13Z</time>
      </trkpt>
      <trkpt lat="44.93372" lon="-0.28308">
        <ele>5</ele>
        <time>2017-11-12T13:09:23Z</time>
      </trkpt>
      <trkpt lat="44.93376" lon="-0.28318">
        <ele>6.1</ele>
        <time>2017-11-12T13:09:30Z</time>
      </trkpt>
      <trkpt lat="44.9338" lon="-0.28329">
        <ele>8.2</ele>
        <time>2017-11-12T13:09:38Z</time>
      </trkpt>
      <trkpt lat="44.93382" lon="-0.28341">
        <ele>7.3</ele>
        <time>2017-11-12T13:09:45Z</time>
      </trkpt>
      <trkpt lat="44.93386" lon="-0.28352">
        <ele>6.9</ele>
        <time>2017-11-12T13:09:52Z</time>
      </trkpt>
      <trkpt lat="44.93392" lon="-0.2836">
        <ele>6.4</ele>
        <time>2017-11-12T13:09:58Z</time>
      </trkpt>
      <trkpt lat="44.93399" lon="-0.28366">
        <ele>5.3</ele>
        <time>2017-11-12T13:10:03Z</time>
      </trkpt>
      <trkpt lat="44.93407" lon="-0.28371">
        <ele>0.8</ele>
        <time>2017-11-12T13:10:10Z</time>
      </trkpt>
      <trkpt lat="44.93415" lon="-0.28367">
        <ele>2.1</ele>
        <time>2017-11-12T13:10:21Z</time>
      </trkpt>
      <trkpt lat="44.93424" lon="-0.28365">
        <ele>10.9</ele>
        <time>2017-11-12T13:11:56Z</time>
      </trkpt>
      <trkpt lat="44.93432" lon="-0.2836">
        <ele>10</ele>
        <time>2017-11-12T13:12:06Z</time>
      </trkpt>
      <trkpt lat="44.93438" lon="-0.28353">
        <ele>8.4</ele>
        <time>2017-11-12T13:12:14Z</time>
      </trkpt>
      <trkpt lat="44.93445" lon="-0.28347">
        <ele>7.5</ele>
        <time>2017-11-12T13:12:21Z</time>
      </trkpt>
      <trkpt lat="44.93453" lon="-0.28344">
        <ele>4.1</ele>
        <time>2017-11-12T13:12:30Z</time>
      </trkpt>
      <trkpt lat="44.93461" lon="-0.28343">
        <ele>3.5</ele>
        <time>2017-11-12T13:12:36Z</time>
      </trkpt>
      <trkpt lat="44.93469" lon="-0.28343">
        <ele>2</ele>
        <time>2017-11-12T13:12:43Z</time>
      </trkpt>
      <trkpt lat="44.93477" lon="-0.28342">
        <ele>1.1</ele>
        <time>2017-11-12T13:12:49Z</time>
      </trkpt>
      <trkpt lat="44.93486" lon="-0.28341">
        <ele>0.7</ele>
        <time>2017-11-12T13:12:56Z</time>
      </trkpt>
      <trkpt lat="44.93494" lon="-0.28341">
        <ele>1.2</ele>
        <time>2017-11-12T13:13:02Z</time>
      </trkpt>
      <trkpt lat="44.93501" lon="-0.28343">
        <ele>1.7</ele>
        <time>2017-11-12T13:13:07Z</time>
      </trkpt>
      <trkpt lat="44.93509" lon="-0.28344">
        <ele>2.4</ele>
        <time>2017-11-12T13:13:12Z</time>
      </trkpt>
      <trkpt lat="44.93517" lon="-0.28346">
        <ele>2.4</ele>
        <time>2017-11-12T13:13:18Z</time>
      </trkpt>
      <trkpt lat="44.93526" lon="-0.28344">
        <ele>1.4</ele>
        <time>2017-11-12T13:13:30Z</time>
      </trkpt>
      <trkpt lat="44.93533" lon="-0.2835">
        <ele>0.8</ele>
        <time>2017-11-12T13:13:40Z</time>
      </trkpt>
      <trkpt lat="44.93542" lon="-0.28351">
        <ele>1</ele>
        <time>2017-11-12T13:13:50Z</time>
      </trkpt>
      <trkpt lat="44.9355" lon="-0.28351">
        <ele>-0.6</ele>
        <time>2017-11-12T13:13:56Z</time>
      </trkpt>
      <trkpt lat="44.93558" lon="-0.28347">
        <ele>-2.1</ele>
        <time>2017-11-12T13:14:02Z</time>
      </trkpt>
      <trkpt lat="44.93566" lon="-0.28342">
        <ele>-1.8</ele>
        <time>2017-11-12T13:14:07Z</time>
      </trkpt>
      <trkpt lat="44.93573" lon="-0.28337">
        <ele>-1.3</ele>
        <time>2017-11-12T13:14:12Z</time>
      </trkpt>
      <trkpt lat="44.93579" lon="-0.2833">
        <ele>-2.2</ele>
        <time>2017-11-12T13:14:18Z</time>
      </trkpt>
      <trkpt lat="44.93585" lon="-0.28322">
        <ele>-4.8</ele>
        <time>2017-11-12T13:14:26Z</time>
      </trkpt>
      <trkpt lat="44.93592" lon="-0.28317">
        <ele>-3.6</ele>
        <time>2017-11-12T13:14:31Z</time>
      </trkpt>
      <trkpt lat="44.936" lon="-0.2831">
        <ele>-2.7</ele>
        <time>2017-11-12T13:14:36Z</time>
      </trkpt>
      <trkpt lat="44.93606" lon="-0.28304">
        <ele>-2.4</ele>
        <time>2017-11-12T13:14:41Z</time>
      </trkpt>
      <trkpt lat="44.93612" lon="-0.28296">
        <ele>-2.7</ele>
        <time>2017-11-12T13:14:49Z</time>
      </trkpt>
      <trkpt lat="44.93619" lon="-0.2829">
        <ele>-3.2</ele>
        <time>2017-11-12T13:14:57Z</time>
      </trkpt>
      <trkpt lat="44.93624" lon="-0.28289">
        <ele>-3.2</ele>
        <time>2017-11-12T13:15:08Z</time>
      </trkpt>
      <trkpt lat="44.93634" lon="-0.28288">
        <ele>-7.6</ele>
        <time>2017-11-12T13:15:12Z</time>
      </trkpt>
      <trkpt lat="44.93641" lon="-0.2829">
        <ele>-10.7</ele>
        <time>2017-11-12T13:15:17Z</time>
      </trkpt>
      <trkpt lat="44.93648" lon="-0.28293">
        <ele>-11.2</ele>
        <time>2017-11-12T13:15:25Z</time>
      </trkpt>
      <trkpt lat="44.93655" lon="-0.28297">
        <ele>-21.2</ele>
        <time>2017-11-12T13:15:35Z</time>
      </trkpt>
      <trkpt lat="44.93665" lon="-0.28296">
        <ele>-24.2</ele>
        <time>2017-11-12T13:15:40Z</time>
      </trkpt>
      <trkpt lat="44.93673" lon="-0.28295">
        <ele>-22.7</ele>
        <time>2017-11-12T13:15:44Z</time>
      </trkpt>
      <trkpt lat="44.93682" lon="-0.28289">
        <ele>-20.5</ele>
        <time>2017-11-12T13:15:49Z</time>
      </trkpt>
      <trkpt lat="44.93691" lon="-0.28289">
        <ele>-31.2</ele>
        <time>2017-11-12T13:16:03Z</time>
      </trkpt>
      <trkpt lat="44.93699" lon="-0.28291">
        <ele>-28.4</ele>
        <time>2017-11-12T13:16:08Z</time>
      </trkpt>
      <trkpt lat="44.93707" lon="-0.28291">
        <ele>-25.1</ele>
        <time>2017-11-12T13:16:13Z</time>
      </trkpt>
      <trkpt lat="44.93718" lon="-0.28284">
        <ele>-29.4</ele>
        <time>2017-11-12T13:16:18Z</time>
      </trkpt>
      <trkpt lat="44.93725" lon="-0.28282">
        <ele>-33.3</ele>
        <time>2017-11-12T13:16:22Z</time>
      </trkpt>
      <trkpt lat="44.93734" lon="-0.28282">
        <ele>-31.5</ele>
        <time>2017-11-12T13:16:28Z</time>
      </trkpt>
      <trkpt lat="44.93741" lon="-0.28282">
        <ele>-29.7</ele>
        <time>2017-11-12T13:16:33Z</time>
      </trkpt>
      <trkpt lat="44.93748" lon="-0.28283">
        <ele>-28.7</ele>
        <time>2017-11-12T13:16:37Z</time>
      </trkpt>
      <trkpt lat="44.93758" lon="-0.28284">
        <ele>-21.5</ele>
        <time>2017-11-12T13:16:41Z</time>
      </trkpt>
      <trkpt lat="44.93766" lon="-0.28285">
        <ele>-17.2</ele>
        <time>2017-11-12T13:16:46Z</time>
      </trkpt>
      <trkpt lat="44.93775" lon="-0.28285">
        <ele>-16.8</ele>
        <time>2017-11-12T13:16:54Z</time>
      </trkpt>
      <trkpt lat="44.93783" lon="-0.28284">
        <ele>-29.8</ele>
        <time>2017-11-12T13:17:09Z</time>
      </trkpt>
      <trkpt lat="44.93792" lon="-0.28283">
        <ele>-32.7</ele>
        <time>2017-11-12T13:17:17Z</time>
      </trkpt>
      <trkpt lat="44.938" lon="-0.2828">
        <ele>-30.9</ele>
        <time>2017-11-12T13:17:24Z</time>
      </trkpt>
      <trkpt lat="44.93808" lon="-0.28281">
        <ele>-28.4</ele>
        <time>2017-11-12T13:17:30Z</time>
      </trkpt>
      <trkpt lat="44.93817" lon="-0.28281">
        <ele>-24.9</ele>
        <time>2017-11-12T13:17:35Z</time>
      </trkpt>
      <trkpt lat="44.93825" lon="-0.28281">
        <ele>-21.4</ele>
        <time>2017-11-12T13:17:40Z</time>
      </trkpt>
      <trkpt lat="44.93834" lon="-0.28281">
        <ele>-17.8</ele>
        <time>2017-11-12T13:17:45Z</time>
      </trkpt>
      <trkpt lat="44.93846" lon="-0.28282">
        <ele>-19.2</ele>
        <time>2017-11-12T13:17:50Z</time>
      </trkpt>
      <trkpt lat="44.93854" lon="-0.28283">
        <ele>-18.7</ele>
        <time>2017-11-12T13:17:55Z</time>
      </trkpt>
      <trkpt lat="44.93862" lon="-0.28283">
        <ele>-16.1</ele>
        <time>2017-11-12T13:18:04Z</time>
      </trkpt>
      <trkpt lat="44.93871" lon="-0.28284">
        <ele>-15.8</ele>
        <time>2017-11-12T13:18:10Z</time>
      </trkpt>
      <trkpt lat="44.93879" lon="-0.28286">
        <ele>-17.1</ele>
        <time>2017-11-12T13:18:18Z</time>
      </trkpt>
      <trkpt lat="44.93887" lon="-0.28288">
        <ele>-16.2</ele>
        <time>2017-11-12T13:18:27Z</time>
      </trkpt>
      <trkpt lat="44.93897" lon="-0.28292">
        <ele>-18.3</ele>
        <time>2017-11-12T13:18:32Z</time>
      </trkpt>
      <trkpt lat="44.93905" lon="-0.28293">
        <ele>-20.6</ele>
        <time>2017-11-12T13:18:43Z</time>
      </trkpt>
      <trkpt lat="44.93913" lon="-0.28295">
        <ele>-19.8</ele>
        <time>2017-11-12T13:18:50Z</time>
      </trkpt>
      <trkpt lat="44.93922" lon="-0.28297">
        <ele>-18</ele>
        <time>2017-11-12T13:18:57Z</time>
      </trkpt>
      <trkpt lat="44.93928" lon="-0.28293">
        <ele>-13.5</ele>
        <time>2017-11-12T13:19:18Z</time>
      </trkpt>
      <trkpt lat="44.93935" lon="-0.28289">
        <ele>-8.5</ele>
        <time>2017-11-12T13:19:24Z</time>
      </trkpt>
      <trkpt lat="44.93944" lon="-0.28291">
        <ele>-9.8</ele>
        <time>2017-11-12T13:19:35Z</time>
      </trkpt>
      <trkpt lat="44.93952" lon="-0.28294">
        <ele>-7.7</ele>
        <time>2017-11-12T13:19:42Z</time>
      </trkpt>
      <trkpt lat="44.9396" lon="-0.28294">
        <ele>-7.3</ele>
        <time>2017-11-12T13:19:56Z</time>
      </trkpt>
      <trkpt lat="44.93961" lon="-0.28282">
        <ele>-3.8</ele>
        <time>2017-11-12T13:20:03Z</time>
      </trkpt>
      <trkpt lat="44.93959" lon="-0.2827">
        <ele>-1.4</ele>
        <time>2017-11-12T13:20:09Z</time>
      </trkpt>
      <trkpt lat="44.93957" lon="-0.28259">
        <ele>-0.5</ele>
        <time>2017-11-12T13:20:16Z</time>
      </trkpt>
      <trkpt lat="44.93957" lon="-0.28247">
        <ele>-3.8</ele>
        <time>2017-11-12T13:20:24Z</time>
      </trkpt>
      <trkpt lat="44.93956" lon="-0.28235">
        <ele>-5.3</ele>
        <time>2017-11-12T13:20:32Z</time>
      </trkpt>
      <trkpt lat="44.93956" lon="-0.28222">
        <ele>-7.2</ele>
        <time>2017-11-12T13:20:40Z</time>
      </trkpt>
      <trkpt lat="44.93955" lon="-0.2821">
        <ele>-10.1</ele>
        <time>2017-11-12T13:20:48Z</time>
      </trkpt>
      <trkpt lat="44.93957" lon="-0.28199">
        <ele>-12.1</ele>
        <time>2017-11-12T13:20:55Z</time>
      </trkpt>
      <trkpt lat="44.93956" lon="-0.28187">
        <ele>-13.2</ele>
        <time>2017-11-12T13:21:01Z</time>
      </trkpt>
      <trkpt lat="44.93955" lon="-0.28175">
        <ele>-14.3</ele>
        <time>2017-11-12T13:21:08Z</time>
      </trkpt>
      <trkpt lat="44.93957" lon="-0.28163">
        <ele>-15.9</ele>
        <time>2017-11-12T13:21:15Z</time>
      </trkpt>
      <trkpt lat="44.93957" lon="-0.28152">
        <ele>-16.3</ele>
        <time>2017-11-12T13:21:21Z</time>
      </trkpt>
      <trkpt lat="44.93957" lon="-0.2814">
        <ele>-15.9</ele>
        <time>2017-11-12T13:21:28Z</time>
      </trkpt>
      <trkpt lat="44.93957" lon="-0.28129">
        <ele>-15.6</ele>
        <time>2017-11-12T13:21:35Z</time>
      </trkpt>
      <trkpt lat="44.93956" lon="-0.28117">
        <ele>-14.5</ele>
        <time>2017-11-12T13:21:42Z</time>
      </trkpt>
      <trkpt lat="44.93956" lon="-0.28106">
        <ele>-14.6</ele>
        <time>2017-11-12T13:21:50Z</time>
      </trkpt>
      <trkpt lat="44.93958" lon="-0.28095">
        <ele>-15.1</ele>
        <time>2017-11-12T13:21:57Z</time>
      </trkpt>
      <trkpt lat="44.93961" lon="-0.28083">
        <ele>-16.3</ele>
        <time>2017-11-12T13:22:04Z</time>
      </trkpt>
      <trkpt lat="44.93961" lon="-0.28071">
        <ele>-12.5</ele>
        <time>2017-11-12T13:22:14Z</time>
      </trkpt>
      <trkpt lat="44.93963" lon="-0.2806">
        <ele>-13.8</ele>
        <time>2017-11-12T13:22:20Z</time>
      </trkpt>
      <trkpt lat="44.93964" lon="-0.28048">
        <ele>-14.4</ele>
        <time>2017-11-12T13:22:26Z</time>
      </trkpt>
      <trkpt lat="44.93966" lon="-0.28037">
        <ele>-15.6</ele>
        <time>2017-11-12T13:22:33Z</time>
      </trkpt>
      <trkpt lat="44.93968" lon="-0.28026">
        <ele>-16.4</ele>
        <time>2017-11-12T13:22:40Z</time>
      </trkpt>
      <trkpt lat="44.93972" lon="-0.28015">
        <ele>-18.5</ele>
        <time>2017-11-12T13:22:48Z</time>
      </trkpt>
      <trkpt lat="44.93974" lon="-0.28004">
        <ele>-20</ele>
        <time>2017-11-12T13:22:54Z</time>
      </trkpt>
      <trkpt lat="44.93975" lon="-0.27993">
        <ele>-20.1</ele>
        <time>2017-11-12T13:23:00Z</time>
      </trkpt>
      <trkpt lat="44.93976" lon="-0.27982">
        <ele>-21</ele>
        <time>2017-11-12T13:23:06Z</time>
      </trkpt>
      <trkpt lat="44.93976" lon="-0.27971">
        <ele>-18.8</ele>
        <time>2017-11-12T13:23:12Z</time>
      </trkpt>
      <trkpt lat="44.93977" lon="-0.2796">
        <ele>-18</ele>
        <time>2017-11-12T13:23:19Z</time>
      </trkpt>
      <trkpt lat="44.93977" lon="-0.27947">
        <ele>-15.3</ele>
        <time>2017-11-12T13:23:26Z</time>
      </trkpt>
      <trkpt lat="44.93978" lon="-0.27935">
        <ele>-14.2</ele>
        <time>2017-11-12T13:23:33Z</time>
      </trkpt>
      <trkpt lat="44.9398" lon="-0.27923">
        <ele>-13.4</ele>
        <time>2017-11-12T13:23:40Z</time>
      </trkpt>
      <trkpt lat="44.93981" lon="-0.27911">
        <ele>-13.7</ele>
        <time>2017-11-12T13:23:47Z</time>
      </trkpt>
      <trkpt lat="44.93982" lon="-0.27899">
        <ele>-14</ele>
        <time>2017-11-12T13:23:54Z</time>
      </trkpt>
      <trkpt lat="44.93985" lon="-0.27887">
        <ele>-15.1</ele>
        <time>2017-11-12T13:24:02Z</time>
      </trkpt>
      <trkpt lat="44.93989" lon="-0.27875">
        <ele>-16</ele>
        <time>2017-11-12T13:24:10Z</time>
      </trkpt>
      <trkpt lat="44.93987" lon="-0.27864">
        <ele>-14.7</ele>
        <time>2017-11-12T13:24:18Z</time>
      </trkpt>
      <trkpt lat="44.9398" lon="-0.27856">
        <ele>-15.5</ele>
        <time>2017-11-12T13:24:25Z</time>
      </trkpt>
      <trkpt lat="44.93973" lon="-0.2785">
        <ele>-15.6</ele>
        <time>2017-11-12T13:24:31Z</time>
      </trkpt>
      <trkpt lat="44.93965" lon="-0.27846">
        <ele>-15.2</ele>
        <time>2017-11-12T13:24:38Z</time>
      </trkpt>
      <trkpt lat="44.93957" lon="-0.27841">
        <ele>-16.4</ele>
        <time>2017-11-12T13:24:46Z</time>
      </trkpt>
      <trkpt lat="44.93949" lon="-0.27836">
        <ele>-15.7</ele>
        <time>2017-11-12T13:24:54Z</time>
      </trkpt>
      <trkpt lat="44.93941" lon="-0.27833">
        <ele>-15.6</ele>
        <time>2017-11-12T13:25:01Z</time>
      </trkpt>
      <trkpt lat="44.93932" lon="-0.27831">
        <ele>-15.1</ele>
        <time>2017-11-12T13:25:08Z</time>
      </trkpt>
      <trkpt lat="44.93924" lon="-0.27831">
        <ele>-12.4</ele>
        <time>2017-11-12T13:25:17Z</time>
      </trkpt>
      <trkpt lat="44.93915" lon="-0.27831">
        <ele>-12.5</ele>
        <time>2017-11-12T13:25:27Z</time>
      </trkpt>
      <trkpt lat="44.93907" lon="-0.2783">
        <ele>-13.6</ele>
        <time>2017-11-12T13:25:55Z</time>
      </trkpt>
      <trkpt lat="44.93902" lon="-0.27819">
        <ele>-14</ele>
        <time>2017-11-12T13:26:06Z</time>
      </trkpt>
      <trkpt lat="44.93901" lon="-0.27807">
        <ele>-15.7</ele>
        <time>2017-11-12T13:26:17Z</time>
      </trkpt>
      <trkpt lat="44.93899" lon="-0.27796">
        <ele>-16.2</ele>
        <time>2017-11-12T13:26:26Z</time>
      </trkpt>
      <trkpt lat="44.93893" lon="-0.27786">
        <ele>-16.1</ele>
        <time>2017-11-12T13:26:33Z</time>
      </trkpt>
      <trkpt lat="44.93887" lon="-0.27779">
        <ele>-16.2</ele>
        <time>2017-11-12T13:26:40Z</time>
      </trkpt>
      <trkpt lat="44.9388" lon="-0.27772">
        <ele>-16.4</ele>
        <time>2017-11-12T13:26:48Z</time>
      </trkpt>
      <trkpt lat="44.93874" lon="-0.27763">
        <ele>-17</ele>
        <time>2017-11-12T13:26:56Z</time>
      </trkpt>
      <trkpt lat="44.93869" lon="-0.27754">
        <ele>-17.6</ele>
        <time>2017-11-12T13:27:04Z</time>
      </trkpt>
      <trkpt lat="44.93865" lon="-0.27742">
        <ele>-16.7</ele>
        <time>2017-11-12T13:27:12Z</time>
      </trkpt>
      <trkpt lat="44.93863" lon="-0.27732">
        <ele>-17.3</ele>
        <time>2017-11-12T13:27:20Z</time>
      </trkpt>
      <trkpt lat="44.93861" lon="-0.27719">
        <ele>-18.8</ele>
        <time>2017-11-12T13:27:28Z</time>
      </trkpt>
      <trkpt lat="44.93859" lon="-0.27707">
        <ele>-20.5</ele>
        <time>2017-11-12T13:27:38Z</time>
      </trkpt>
      <trkpt lat="44.93854" lon="-0.27698">
        <ele>-19.3</ele>
        <time>2017-11-12T13:27:44Z</time>
      </trkpt>
      <trkpt lat="44.93846" lon="-0.27694">
        <ele>-19</ele>
        <time>2017-11-12T13:27:50Z</time>
      </trkpt>
      <trkpt lat="44.93838" lon="-0.27691">
        <ele>-19</ele>
        <time>2017-11-12T13:27:57Z</time>
      </trkpt>
      <trkpt lat="44.93831" lon="-0.27682">
        <ele>-21.1</ele>
        <time>2017-11-12T13:28:06Z</time>
      </trkpt>
      <trkpt lat="44.93829" lon="-0.27671">
        <ele>-21.9</ele>
        <time>2017-11-12T13:28:14Z</time>
      </trkpt>
      <trkpt lat="44.93826" lon="-0.2766">
        <ele>-22.7</ele>
        <time>2017-11-12T13:28:22Z</time>
      </trkpt>
      <trkpt lat="44.93827" lon="-0.27649">
        <ele>-22.4</ele>
        <time>2017-11-12T13:28:30Z</time>
      </trkpt>
      <trkpt lat="44.93827" lon="-0.27636">
        <ele>-23</ele>
        <time>2017-11-12T13:28:39Z</time>
      </trkpt>
      <trkpt lat="44.93827" lon="-0.27625">
        <ele>-24</ele>
        <time>2017-11-12T13:28:46Z</time>
      </trkpt>
      <trkpt lat="44.93834" lon="-0.27618">
        <ele>-30.2</ele>
        <time>2017-11-12T13:28:53Z</time>
      </trkpt>
      <trkpt lat="44.93839" lon="-0.27609">
        <ele>-35.1</ele>
        <time>2017-11-12T13:29:02Z</time>
      </trkpt>
      <trkpt lat="44.9384" lon="-0.27597">
        <ele>-35.7</ele>
        <time>2017-11-12T13:29:08Z</time>
      </trkpt>
      <trkpt lat="44.93839" lon="-0.27586">
        <ele>-36</ele>
        <time>2017-11-12T13:29:14Z</time>
      </trkpt>
      <trkpt lat="44.93838" lon="-0.27573">
        <ele>-35.8</ele>
        <time>2017-11-12T13:29:22Z</time>
      </trkpt>
      <trkpt lat="44.93839" lon="-0.27561">
        <ele>-37</ele>
        <time>2017-11-12T13:29:30Z</time>
      </trkpt>
      <trkpt lat="44.9384" lon="-0.27549">
        <ele>-37.9</ele>
        <time>2017-11-12T13:29:38Z</time>
      </trkpt>
      <trkpt lat="44.93839" lon="-0.27537">
        <ele>-37.3</ele>
        <time>2017-11-12T13:29:45Z</time>
      </trkpt>
      <trkpt lat="44.9384" lon="-0.27525">
        <ele>-37.8</ele>
        <time>2017-11-12T13:29:52Z</time>
      </trkpt>
      <trkpt lat="44.93841" lon="-0.27513">
        <ele>-38.3</ele>
        <time>2017-11-12T13:29:59Z</time>
      </trkpt>
      <trkpt lat="44.93842" lon="-0.27501">
        <ele>-37.8</ele>
        <time>2017-11-12T13:30:07Z</time>
      </trkpt>
      <trkpt lat="44.93844" lon="-0.27489">
        <ele>-37.8</ele>
        <time>2017-11-12T13:30:15Z</time>
      </trkpt>
      <trkpt lat="44.93846" lon="-0.27478">
        <ele>-37.2</ele>
        <time>2017-11-12T13:30:22Z</time>
      </trkpt>
      <trkpt lat="44.93846" lon="-0.27466">
        <ele>-35.5</ele>
        <time>2017-11-12T13:30:29Z</time>
      </trkpt>
      <trkpt lat="44.93842" lon="-0.27457">
        <ele>-35.9</ele>
        <time>2017-11-12T13:30:36Z</time>
      </trkpt>
      <trkpt lat="44.93835" lon="-0.27451">
        <ele>-35</ele>
        <time>2017-11-12T13:30:42Z</time>
      </trkpt>
      <trkpt lat="44.93828" lon="-0.27449">
        <ele>-36.2</ele>
        <time>2017-11-12T13:30:48Z</time>
      </trkpt>
      <trkpt lat="44.93819" lon="-0.27446">
        <ele>-36.4</ele>
        <time>2017-11-12T13:30:54Z</time>
      </trkpt>
      <trkpt lat="44.93811" lon="-0.27443">
        <ele>-35.6</ele>
        <time>2017-11-12T13:31:02Z</time>
      </trkpt>
      <trkpt lat="44.93803" lon="-0.27439">
        <ele>-34.3</ele>
        <time>2017-11-12T13:31:09Z</time>
      </trkpt>
      <trkpt lat="44.93794" lon="-0.27435">
        <ele>-36.7</ele>
        <time>2017-11-12T13:31:17Z</time>
      </trkpt>
      <trkpt lat="44.93786" lon="-0.27432">
        <ele>-38.2</ele>
        <time>2017-11-12T13:31:24Z</time>
      </trkpt>
      <trkpt lat="44.93778" lon="-0.27428">
        <ele>-39.3</ele>
        <time>2017-11-12T13:31:31Z</time>
      </trkpt>
      <trkpt lat="44.9377" lon="-0.27425">
        <ele>-40.7</ele>
        <time>2017-11-12T13:31:38Z</time>
      </trkpt>
      <trkpt lat="44.93761" lon="-0.27422">
        <ele>-41.3</ele>
        <time>2017-11-12T13:31:45Z</time>
      </trkpt>
      <trkpt lat="44.93753" lon="-0.2742">
        <ele>-41.7</ele>
        <time>2017-11-12T13:31:51Z</time>
      </trkpt>
      <trkpt lat="44.93745" lon="-0.2742">
        <ele>-42</ele>
        <time>2017-11-12T13:31:57Z</time>
      </trkpt>
      <trkpt lat="44.93738" lon="-0.27417">
        <ele>-42.5</ele>
        <time>2017-11-12T13:32:04Z</time>
      </trkpt>
      <trkpt lat="44.93729" lon="-0.27416">
        <ele>-43.4</ele>
        <time>2017-11-12T13:32:11Z</time>
      </trkpt>
      <trkpt lat="44.9372" lon="-0.27414">
        <ele>-43.3</ele>
        <time>2017-11-12T13:32:19Z</time>
      </trkpt>
      <trkpt lat="44.93712" lon="-0.27411">
        <ele>-43.3</ele>
        <time>2017-11-12T13:32:26Z</time>
      </trkpt>
      <trkpt lat="44.93704" lon="-0.27411">
        <ele>-43.1</ele>
        <time>2017-11-12T13:32:33Z</time>
      </trkpt>
      <trkpt lat="44.93695" lon="-0.27411">
        <ele>-42.5</ele>
        <time>2017-11-12T13:32:41Z</time>
      </trkpt>
      <trkpt lat="44.93686" lon="-0.2741">
        <ele>-41.6</ele>
        <time>2017-11-12T13:32:50Z</time>
      </trkpt>
      <trkpt lat="44.93678" lon="-0.27409">
        <ele>-40.5</ele>
        <time>2017-11-12T13:32:57Z</time>
      </trkpt>
      <trkpt lat="44.9367" lon="-0.27407">
        <ele>-39.9</ele>
        <time>2017-11-12T13:33:03Z</time>
      </trkpt>
      <trkpt lat="44.93663" lon="-0.274">
        <ele>-45.7</ele>
        <time>2017-11-12T13:33:09Z</time>
      </trkpt>
      <trkpt lat="44.93655" lon="-0.27397">
        <ele>-49</ele>
        <time>2017-11-12T13:33:14Z</time>
      </trkpt>
      <trkpt lat="44.93647" lon="-0.27397">
        <ele>-49.6</ele>
        <time>2017-11-12T13:33:27Z</time>
      </trkpt>
      <trkpt lat="44.9364" lon="-0.27398">
        <ele>-49.5</ele>
        <time>2017-11-12T13:33:34Z</time>
      </trkpt>
      <trkpt lat="44.93631" lon="-0.27401">
        <ele>-46.6</ele>
        <time>2017-11-12T13:33:41Z</time>
      </trkpt>
      <trkpt lat="44.93623" lon="-0.27404">
        <ele>-42.7</ele>
        <time>2017-11-12T13:33:47Z</time>
      </trkpt>
      <trkpt lat="44.93615" lon="-0.27407">
        <ele>-38.4</ele>
        <time>2017-11-12T13:33:54Z</time>
      </trkpt>
      <trkpt lat="44.93607" lon="-0.27412">
        <ele>-34.4</ele>
        <time>2017-11-12T13:34:00Z</time>
      </trkpt>
      <trkpt lat="44.93599" lon="-0.27417">
        <ele>-32.6</ele>
        <time>2017-11-12T13:34:07Z</time>
      </trkpt>
      <trkpt lat="44.93592" lon="-0.27422">
        <ele>-30.3</ele>
        <time>2017-11-12T13:34:14Z</time>
      </trkpt>
      <trkpt lat="44.93585" lon="-0.27427">
        <ele>-29.2</ele>
        <time>2017-11-12T13:34:21Z</time>
      </trkpt>
      <trkpt lat="44.93578" lon="-0.27433">
        <ele>-29.4</ele>
        <time>2017-11-12T13:34:27Z</time>
      </trkpt>
      <trkpt lat="44.93573" lon="-0.27442">
        <ele>-27.8</ele>
        <time>2017-11-12T13:34:33Z</time>
      </trkpt>
      <trkpt lat="44.93568" lon="-0.27451">
        <ele>-26.8</ele>
        <time>2017-11-12T13:34:39Z</time>
      </trkpt>
      <trkpt lat="44.93561" lon="-0.27458">
        <ele>-27.7</ele>
        <time>2017-11-12T13:34:46Z</time>
      </trkpt>
      <trkpt lat="44.93554" lon="-0.27464">
        <ele>-28.4</ele>
        <time>2017-11-12T13:34:54Z</time>
      </trkpt>
      <trkpt lat="44.93546" lon="-0.27471">
        <ele>-29.3</ele>
        <time>2017-11-12T13:35:02Z</time>
      </trkpt>
      <trkpt lat="44.93539" lon="-0.27476">
        <ele>-30.3</ele>
        <time>2017-11-12T13:35:09Z</time>
      </trkpt>
      <trkpt lat="44.93532" lon="-0.27484">
        <ele>-30.1</ele>
        <time>2017-11-12T13:35:16Z</time>
      </trkpt>
      <trkpt lat="44.93526" lon="-0.27492">
        <ele>-29.8</ele>
        <time>2017-11-12T13:35:24Z</time>
      </trkpt>
      <trkpt lat="44.9352" lon="-0.27501">
        <ele>-29.4</ele>
        <time>2017-11-12T13:35:30Z</time>
      </trkpt>
      <trkpt lat="44.93515" lon="-0.27509">
        <ele>-29.5</ele>
        <time>2017-11-12T13:35:37Z</time>
      </trkpt>
      <trkpt lat="44.93511" lon="-0.27518">
        <ele>-28.8</ele>
        <time>2017-11-12T13:35:43Z</time>
      </trkpt>
      <trkpt lat="44.93507" lon="-0.27527">
        <ele>-28.3</ele>
        <time>2017-11-12T13:35:49Z</time>
      </trkpt>
      <trkpt lat="44.93501" lon="-0.27537">
        <ele>-27.4</ele>
        <time>2017-11-12T13:35:56Z</time>
      </trkpt>
      <trkpt lat="44.93494" lon="-0.27545">
        <ele>-28.3</ele>
        <time>2017-11-12T13:36:04Z</time>
      </trkpt>
      <trkpt lat="44.93487" lon="-0.2755">
        <ele>-27.9</ele>
        <time>2017-11-12T13:36:12Z</time>
      </trkpt>
      <trkpt lat="44.93479" lon="-0.27553">
        <ele>-28.8</ele>
        <time>2017-11-12T13:36:19Z</time>
      </trkpt>
      <trkpt lat="44.9347" lon="-0.27556">
        <ele>-29</ele>
        <time>2017-11-12T13:36:25Z</time>
      </trkpt>
      <trkpt lat="44.93462" lon="-0.27556">
        <ele>-29.3</ele>
        <time>2017-11-12T13:36:31Z</time>
      </trkpt>
      <trkpt lat="44.93454" lon="-0.27557">
        <ele>-29.8</ele>
        <time>2017-11-12T13:36:38Z</time>
      </trkpt>
      <trkpt lat="44.93445" lon="-0.27557">
        <ele>-29.1</ele>
        <time>2017-11-12T13:36:45Z</time>
      </trkpt>
      <trkpt lat="44.93437" lon="-0.27557">
        <ele>-29.1</ele>
        <time>2017-11-12T13:36:51Z</time>
      </trkpt>
      <trkpt lat="44.93428" lon="-0.27557">
        <ele>-30.8</ele>
        <time>2017-11-12T13:36:58Z</time>
      </trkpt>
      <trkpt lat="44.9342" lon="-0.27557">
        <ele>-31.2</ele>
        <time>2017-11-12T13:37:05Z</time>
      </trkpt>
      <trkpt lat="44.93412" lon="-0.27556">
        <ele>-29.8</ele>
        <time>2017-11-12T13:37:12Z</time>
      </trkpt>
      <trkpt lat="44.93404" lon="-0.27555">
        <ele>-28.3</ele>
        <time>2017-11-12T13:37:18Z</time>
      </trkpt>
      <trkpt lat="44.93396" lon="-0.27555">
        <ele>-27.3</ele>
        <time>2017-11-12T13:37:24Z</time>
      </trkpt>
      <trkpt lat="44.93387" lon="-0.27554">
        <ele>-27.7</ele>
        <time>2017-11-12T13:37:31Z</time>
      </trkpt>
      <trkpt lat="44.93379" lon="-0.27553">
        <ele>-27.3</ele>
        <time>2017-11-12T13:37:37Z</time>
      </trkpt>
      <trkpt lat="44.93371" lon="-0.2755">
        <ele>-24.6</ele>
        <time>2017-11-12T13:37:43Z</time>
      </trkpt>
      <trkpt lat="44.93368" lon="-0.27539">
        <ele>-22</ele>
        <time>2017-11-12T13:37:51Z</time>
      </trkpt>
      <trkpt lat="44.93366" lon="-0.27527">
        <ele>-22.4</ele>
        <time>2017-11-12T13:37:58Z</time>
      </trkpt>
      <trkpt lat="44.93365" lon="-0.27516">
        <ele>-22.5</ele>
        <time>2017-11-12T13:38:05Z</time>
      </trkpt>
      <trkpt lat="44.93365" lon="-0.27504">
        <ele>-22.2</ele>
        <time>2017-11-12T13:38:12Z</time>
      </trkpt>
      <trkpt lat="44.93365" lon="-0.27493">
        <ele>-21.6</ele>
        <time>2017-11-12T13:38:19Z</time>
      </trkpt>
      <trkpt lat="44.93365" lon="-0.27481">
        <ele>-21.2</ele>
        <time>2017-11-12T13:38:27Z</time>
      </trkpt>
      <trkpt lat="44.93367" lon="-0.27469">
        <ele>-22.1</ele>
        <time>2017-11-12T13:38:34Z</time>
      </trkpt>
      <trkpt lat="44.93371" lon="-0.2746">
        <ele>-21.5</ele>
        <time>2017-11-12T13:38:40Z</time>
      </trkpt>
      <trkpt lat="44.93372" lon="-0.27448">
        <ele>-23.1</ele>
        <time>2017-11-12T13:38:48Z</time>
      </trkpt>
      <trkpt lat="44.93373" lon="-0.27435">
        <ele>-25.6</ele>
        <time>2017-11-12T13:38:56Z</time>
      </trkpt>
      <trkpt lat="44.93374" lon="-0.27423">
        <ele>-25.6</ele>
        <time>2017-11-12T13:39:04Z</time>
      </trkpt>
      <trkpt lat="44.93378" lon="-0.27413">
        <ele>-25.8</ele>
        <time>2017-11-12T13:39:11Z</time>
      </trkpt>
      <trkpt lat="44.93382" lon="-0.27403">
        <ele>-26.1</ele>
        <time>2017-11-12T13:39:19Z</time>
      </trkpt>
      <trkpt lat="44.93387" lon="-0.27394">
        <ele>-25.6</ele>
        <time>2017-11-12T13:39:26Z</time>
      </trkpt>
      <trkpt lat="44.93393" lon="-0.27385">
        <ele>-25.7</ele>
        <time>2017-11-12T13:39:33Z</time>
      </trkpt>
      <trkpt lat="44.93398" lon="-0.27377">
        <ele>-24.9</ele>
        <time>2017-11-12T13:39:40Z</time>
      </trkpt>
      <trkpt lat="44.93404" lon="-0.27369">
        <ele>-25.1</ele>
        <time>2017-11-12T13:39:47Z</time>
      </trkpt>
      <trkpt lat="44.9341" lon="-0.27361">
        <ele>-25</ele>
        <time>2017-11-12T13:39:54Z</time>
      </trkpt>
      <trkpt lat="44.93417" lon="-0.27353">
        <ele>-25.5</ele>
        <time>2017-11-12T13:40:01Z</time>
      </trkpt>
      <trkpt lat="44.93423" lon="-0.27345">
        <ele>-25.8</ele>
        <time>2017-11-12T13:40:11Z</time>
      </trkpt>
      <trkpt lat="44.93427" lon="-0.27336">
        <ele>-24.3</ele>
        <time>2017-11-12T13:40:17Z</time>
      </trkpt>
      <trkpt lat="44.93432" lon="-0.27326">
        <ele>-22.9</ele>
        <time>2017-11-12T13:40:25Z</time>
      </trkpt>
      <trkpt lat="44.93437" lon="-0.27317">
        <ele>-23.6</ele>
        <time>2017-11-12T13:40:32Z</time>
      </trkpt>
      <trkpt lat="44.93441" lon="-0.27308">
        <ele>-26.1</ele>
        <time>2017-11-12T13:40:38Z</time>
      </trkpt>
      <trkpt lat="44.93445" lon="-0.27298">
        <ele>-30</ele>
        <time>2017-11-12T13:40:44Z</time>
      </trkpt>
      <trkpt lat="44.93447" lon="-0.27286">
        <ele>-32.7</ele>
        <time>2017-11-12T13:40:51Z</time>
      </trkpt>
      <trkpt lat="44.93448" lon="-0.27274">
        <ele>-30.8</ele>
        <time>2017-11-12T13:40:58Z</time>
      </trkpt>
      <trkpt lat="44.93447" lon="-0.27263">
        <ele>-29.8</ele>
        <time>2017-11-12T13:41:03Z</time>
      </trkpt>
      <trkpt lat="44.93446" lon="-0.27253">
        <ele>-28</ele>
        <time>2017-11-12T13:41:08Z</time>
      </trkpt>
      <trkpt lat="44.93443" lon="-0.27241">
        <ele>-24.9</ele>
        <time>2017-11-12T13:41:13Z</time>
      </trkpt>
      <trkpt lat="44.93443" lon="-0.27229">
        <ele>-24.8</ele>
        <time>2017-11-12T13:41:21Z</time>
      </trkpt>
      <trkpt lat="44.93443" lon="-0.27218">
        <ele>-26.9</ele>
        <time>2017-11-12T13:41:28Z</time>
      </trkpt>
      <trkpt lat="44.93441" lon="-0.27207">
        <ele>-28.9</ele>
        <time>2017-11-12T13:41:35Z</time>
      </trkpt>
      <trkpt lat="44.93439" lon="-0.27196">
        <ele>-28.3</ele>
        <time>2017-11-12T13:41:41Z</time>
      </trkpt>
      <trkpt lat="44.93436" lon="-0.27184">
        <ele>-27.8</ele>
        <time>2017-11-12T13:41:48Z</time>
      </trkpt>
      <trkpt lat="44.93436" lon="-0.27173">
        <ele>-31.7</ele>
        <time>2017-11-12T13:41:54Z</time>
      </trkpt>
      <trkpt lat="44.93434" lon="-0.27161">
        <ele>-31.7</ele>
        <time>2017-11-12T13:42:01Z</time>
      </trkpt>
      <trkpt lat="44.93431" lon="-0.2715">
        <ele>-28.9</ele>
        <time>2017-11-12T13:42:08Z</time>
      </trkpt>
      <trkpt lat="44.93428" lon="-0.2714">
        <ele>-28.1</ele>
        <time>2017-11-12T13:42:14Z</time>
      </trkpt>
      <trkpt lat="44.93425" lon="-0.27129">
        <ele>-28.7</ele>
        <time>2017-11-12T13:42:21Z</time>
      </trkpt>
      <trkpt lat="44.93419" lon="-0.2712">
        <ele>-27.2</ele>
        <time>2017-11-12T13:42:29Z</time>
      </trkpt>
      <trkpt lat="44.93412" lon="-0.27114">
        <ele>-26.7</ele>
        <time>2017-11-12T13:42:35Z</time>
      </trkpt>
      <trkpt lat="44.93404" lon="-0.2711">
        <ele>-27</ele>
        <time>2017-11-12T13:42:41Z</time>
      </trkpt>
      <trkpt lat="44.93395" lon="-0.27109">
        <ele>-28</ele>
        <time>2017-11-12T13:42:48Z</time>
      </trkpt>
      <trkpt lat="44.93386" lon="-0.27108">
        <ele>-28.8</ele>
        <time>2017-11-12T13:42:55Z</time>
      </trkpt>
      <trkpt lat="44.93378" lon="-0.2711">
        <ele>-28.7</ele>
        <time>2017-11-12T13:43:02Z</time>
      </trkpt>
      <trkpt lat="44.93369" lon="-0.27112">
        <ele>-28.1</ele>
        <time>2017-11-12T13:43:09Z</time>
      </trkpt>
      <trkpt lat="44.93361" lon="-0.27115">
        <ele>-29.3</ele>
        <time>2017-11-12T13:43:17Z</time>
      </trkpt>
      <trkpt lat="44.93353" lon="-0.27117">
        <ele>-31.2</ele>
        <time>2017-11-12T13:43:24Z</time>
      </trkpt>
      <trkpt lat="44.93345" lon="-0.2712">
        <ele>-31.2</ele>
        <time>2017-11-12T13:43:31Z</time>
      </trkpt>
      <trkpt lat="44.93337" lon="-0.27123">
        <ele>-32</ele>
        <time>2017-11-12T13:43:38Z</time>
      </trkpt>
      <trkpt lat="44.93329" lon="-0.27128">
        <ele>-30.9</ele>
        <time>2017-11-12T13:43:46Z</time>
      </trkpt>
      <trkpt lat="44.9332" lon="-0.27131">
        <ele>-33.2</ele>
        <time>2017-11-12T13:43:55Z</time>
      </trkpt>
      <trkpt lat="44.93311" lon="-0.27132">
        <ele>-33.5</ele>
        <time>2017-11-12T13:44:04Z</time>
      </trkpt>
      <trkpt lat="44.93304" lon="-0.27133">
        <ele>-33.2</ele>
        <time>2017-11-12T13:44:11Z</time>
      </trkpt>
      <trkpt lat="44.93295" lon="-0.27134">
        <ele>-32.3</ele>
        <time>2017-11-12T13:44:19Z</time>
      </trkpt>
      <trkpt lat="44.93286" lon="-0.27134">
        <ele>-29.9</ele>
        <time>2017-11-12T13:44:26Z</time>
      </trkpt>
      <trkpt lat="44.93278" lon="-0.27134">
        <ele>-31.2</ele>
        <time>2017-11-12T13:44:33Z</time>
      </trkpt>
      <trkpt lat="44.9327" lon="-0.27136">
        <ele>-32.1</ele>
        <time>2017-11-12T13:44:40Z</time>
      </trkpt>
      <trkpt lat="44.93262" lon="-0.27137">
        <ele>-34</ele>
        <time>2017-11-12T13:44:47Z</time>
      </trkpt>
      <trkpt lat="44.93253" lon="-0.2714">
        <ele>-34.7</ele>
        <time>2017-11-12T13:44:56Z</time>
      </trkpt>
      <trkpt lat="44.93245" lon="-0.27142">
        <ele>-35.1</ele>
        <time>2017-11-12T13:45:06Z</time>
      </trkpt>
      <trkpt lat="44.93236" lon="-0.27139">
        <ele>-35.4</ele>
        <time>2017-11-12T13:45:41Z</time>
      </trkpt>
      <trkpt lat="44.93229" lon="-0.27132">
        <ele>-34.5</ele>
        <time>2017-11-12T13:45:52Z</time>
      </trkpt>
      <trkpt lat="44.93223" lon="-0.27123">
        <ele>-37.1</ele>
        <time>2017-11-12T13:46:06Z</time>
      </trkpt>
      <trkpt lat="44.93216" lon="-0.27116">
        <ele>-35.3</ele>
        <time>2017-11-12T13:46:14Z</time>
      </trkpt>
      <trkpt lat="44.9321" lon="-0.27107">
        <ele>-36.1</ele>
        <time>2017-11-12T13:46:25Z</time>
      </trkpt>
      <trkpt lat="44.93205" lon="-0.27098">
        <ele>-35.9</ele>
        <time>2017-11-12T13:46:34Z</time>
      </trkpt>
      <trkpt lat="44.93197" lon="-0.27094">
        <ele>-34.6</ele>
        <time>2017-11-12T13:46:41Z</time>
      </trkpt>
      <trkpt lat="44.93189" lon="-0.27088">
        <ele>-33.2</ele>
        <time>2017-11-12T13:46:53Z</time>
      </trkpt>
      <trkpt lat="44.93182" lon="-0.27081">
        <ele>-32.1</ele>
        <time>2017-11-12T13:47:02Z</time>
      </trkpt>
      <trkpt lat="44.93176" lon="-0.27073">
        <ele>-29.1</ele>
        <time>2017-11-12T13:47:08Z</time>
      </trkpt>
      <trkpt lat="44.9317" lon="-0.27067">
        <ele>-27.2</ele>
        <time>2017-11-12T13:47:13Z</time>
      </trkpt>
      <trkpt lat="44.93163" lon="-0.2706">
        <ele>-26.4</ele>
        <time>2017-11-12T13:47:19Z</time>
      </trkpt>
      <trkpt lat="44.93155" lon="-0.27054">
        <ele>-25.5</ele>
        <time>2017-11-12T13:47:26Z</time>
      </trkpt>
      <trkpt lat="44.93147" lon="-0.27049">
        <ele>-25.2</ele>
        <time>2017-11-12T13:47:33Z</time>
      </trkpt>
      <trkpt lat="44.9314" lon="-0.27044">
        <ele>-23.8</ele>
        <time>2017-11-12T13:47:41Z</time>
      </trkpt>
      <trkpt lat="44.93132" lon="-0.27038">
        <ele>-23.8</ele>
        <time>2017-11-12T13:47:48Z</time>
      </trkpt>
      <trkpt lat="44.93124" lon="-0.27035">
        <ele>-23.7</ele>
        <time>2017-11-12T13:47:55Z</time>
      </trkpt>
      <trkpt lat="44.93117" lon="-0.27031">
        <ele>-24</ele>
        <time>2017-11-12T13:48:02Z</time>
      </trkpt>
      <trkpt lat="44.93109" lon="-0.27028">
        <ele>-23.5</ele>
        <time>2017-11-12T13:48:09Z</time>
      </trkpt>
      <trkpt lat="44.93101" lon="-0.27024">
        <ele>-21.7</ele>
        <time>2017-11-12T13:48:16Z</time>
      </trkpt>
      <trkpt lat="44.93093" lon="-0.27023">
        <ele>-21.2</ele>
        <time>2017-11-12T13:48:22Z</time>
      </trkpt>
      <trkpt lat="44.93084" lon="-0.27022">
        <ele>-21.3</ele>
        <time>2017-11-12T13:48:29Z</time>
      </trkpt>
      <trkpt lat="44.93077" lon="-0.27019">
        <ele>-24</ele>
        <time>2017-11-12T13:48:38Z</time>
      </trkpt>
      <trkpt lat="44.93069" lon="-0.27019">
        <ele>-25.7</ele>
        <time>2017-11-12T13:48:46Z</time>
      </trkpt>
      <trkpt lat="44.93061" lon="-0.27019">
        <ele>-23.5</ele>
        <time>2017-11-12T13:48:52Z</time>
      </trkpt>
      <trkpt lat="44.93052" lon="-0.27019">
        <ele>-23</ele>
        <time>2017-11-12T13:48:59Z</time>
      </trkpt>
      <trkpt lat="44.93044" lon="-0.27018">
        <ele>-22.3</ele>
        <time>2017-11-12T13:49:06Z</time>
      </trkpt>
      <trkpt lat="44.93036" lon="-0.27016">
        <ele>-22.2</ele>
        <time>2017-11-12T13:49:15Z</time>
      </trkpt>
      <trkpt lat="44.93028" lon="-0.27015">
        <ele>-21.3</ele>
        <time>2017-11-12T13:49:23Z</time>
      </trkpt>
      <trkpt lat="44.93019" lon="-0.27014">
        <ele>-22.8</ele>
        <time>2017-11-12T13:49:31Z</time>
      </trkpt>
      <trkpt lat="44.93011" lon="-0.27013">
        <ele>-21.7</ele>
        <time>2017-11-12T13:49:38Z</time>
      </trkpt>
      <trkpt lat="44.93009" lon="-0.27002">
        <ele>-22.1</ele>
        <time>2017-11-12T13:49:53Z</time>
      </trkpt>
      <trkpt lat="44.93011" lon="-0.2699">
        <ele>-24.1</ele>
        <time>2017-11-12T13:50:01Z</time>
      </trkpt>
      <trkpt lat="44.93013" lon="-0.26978">
        <ele>-23.7</ele>
        <time>2017-11-12T13:50:10Z</time>
      </trkpt>
      <trkpt lat="44.93007" lon="-0.26968">
        <ele>-20.2</ele>
        <time>2017-11-12T13:50:17Z</time>
      </trkpt>
      <trkpt lat="44.92999" lon="-0.26965">
        <ele>-18.6</ele>
        <time>2017-11-12T13:50:24Z</time>
      </trkpt>
      <trkpt lat="44.92991" lon="-0.26961">
        <ele>-20.3</ele>
        <time>2017-11-12T13:50:32Z</time>
      </trkpt>
      <trkpt lat="44.92983" lon="-0.2696">
        <ele>-20</ele>
        <time>2017-11-12T13:50:40Z</time>
      </trkpt>
      <trkpt lat="44.92975" lon="-0.2696">
        <ele>-17.9</ele>
        <time>2017-11-12T13:50:47Z</time>
      </trkpt>
      <trkpt lat="44.92967" lon="-0.26959">
        <ele>-17</ele>
        <time>2017-11-12T13:50:54Z</time>
      </trkpt>
      <trkpt lat="44.92958" lon="-0.26959">
        <ele>-17.5</ele>
        <time>2017-11-12T13:51:01Z</time>
      </trkpt>
      <trkpt lat="44.9295" lon="-0.26957">
        <ele>-18</ele>
        <time>2017-11-12T13:51:09Z</time>
      </trkpt>
      <trkpt lat="44.92942" lon="-0.26958">
        <ele>-18.1</ele>
        <time>2017-11-12T13:51:16Z</time>
      </trkpt>
      <trkpt lat="44.92933" lon="-0.26957">
        <ele>-18.6</ele>
        <time>2017-11-12T13:51:24Z</time>
      </trkpt>
      <trkpt lat="44.92925" lon="-0.26957">
        <ele>-18.1</ele>
        <time>2017-11-12T13:51:32Z</time>
      </trkpt>
      <trkpt lat="44.92917" lon="-0.26956">
        <ele>-16.4</ele>
        <time>2017-11-12T13:51:40Z</time>
      </trkpt>
      <trkpt lat="44.92909" lon="-0.26955">
        <ele>-16</ele>
        <time>2017-11-12T13:51:46Z</time>
      </trkpt>
      <trkpt lat="44.92901" lon="-0.26953">
        <ele>-15.6</ele>
        <time>2017-11-12T13:51:53Z</time>
      </trkpt>
      <trkpt lat="44.92892" lon="-0.26953">
        <ele>-14</ele>
        <time>2017-11-12T13:52:00Z</time>
      </trkpt>
      <trkpt lat="44.92885" lon="-0.2695">
        <ele>-12.9</ele>
        <time>2017-11-12T13:52:07Z</time>
      </trkpt>
      <trkpt lat="44.92877" lon="-0.26948">
        <ele>-11.8</ele>
        <time>2017-11-12T13:52:13Z</time>
      </trkpt>
      <trkpt lat="44.92868" lon="-0.26944">
        <ele>-11</ele>
        <time>2017-11-12T13:52:21Z</time>
      </trkpt>
      <trkpt lat="44.92861" lon="-0.26941">
        <ele>-10.7</ele>
        <time>2017-11-12T13:52:29Z</time>
      </trkpt>
      <trkpt lat="44.92853" lon="-0.26936">
        <ele>-11.9</ele>
        <time>2017-11-12T13:52:38Z</time>
      </trkpt>
      <trkpt lat="44.92845" lon="-0.2693">
        <ele>-10.6</ele>
        <time>2017-11-12T13:52:47Z</time>
      </trkpt>
      <trkpt lat="44.92838" lon="-0.26926">
        <ele>-11.1</ele>
        <time>2017-11-12T13:52:55Z</time>
      </trkpt>
      <trkpt lat="44.9283" lon="-0.26922">
        <ele>-12.3</ele>
        <time>2017-11-12T13:53:03Z</time>
      </trkpt>
      <trkpt lat="44.92822" lon="-0.26917">
        <ele>-12.5</ele>
        <time>2017-11-12T13:53:11Z</time>
      </trkpt>
      <trkpt lat="44.92814" lon="-0.26914">
        <ele>-13.2</ele>
        <time>2017-11-12T13:53:19Z</time>
      </trkpt>
      <trkpt lat="44.92806" lon="-0.26911">
        <ele>-16.6</ele>
        <time>2017-11-12T13:53:29Z</time>
      </trkpt>
      <trkpt lat="44.92797" lon="-0.2691">
        <ele>-18.7</ele>
        <time>2017-11-12T13:53:37Z</time>
      </trkpt>
      <trkpt lat="44.92789" lon="-0.2691">
        <ele>-20.2</ele>
        <time>2017-11-12T13:53:44Z</time>
      </trkpt>
      <trkpt lat="44.92781" lon="-0.26909">
        <ele>-21.8</ele>
        <time>2017-11-12T13:53:52Z</time>
      </trkpt>
      <trkpt lat="44.92772" lon="-0.26909">
        <ele>-24.8</ele>
        <time>2017-11-12T13:54:01Z</time>
      </trkpt>
      <trkpt lat="44.92764" lon="-0.26907">
        <ele>-26</ele>
        <time>2017-11-12T13:54:08Z</time>
      </trkpt>
      <trkpt lat="44.92755" lon="-0.26908">
        <ele>-25.9</ele>
        <time>2017-11-12T13:54:15Z</time>
      </trkpt>
      <trkpt lat="44.92747" lon="-0.26906">
        <ele>-24.2</ele>
        <time>2017-11-12T13:54:23Z</time>
      </trkpt>
      <trkpt lat="44.92738" lon="-0.26905">
        <ele>-23</ele>
        <time>2017-11-12T13:54:31Z</time>
      </trkpt>
      <trkpt lat="44.9273" lon="-0.26901">
        <ele>-21.4</ele>
        <time>2017-11-12T13:54:40Z</time>
      </trkpt>
      <trkpt lat="44.92723" lon="-0.26898">
        <ele>-20.6</ele>
        <time>2017-11-12T13:54:47Z</time>
      </trkpt>
      <trkpt lat="44.92715" lon="-0.26896">
        <ele>-19.9</ele>
        <time>2017-11-12T13:54:53Z</time>
      </trkpt>
      <trkpt lat="44.92707" lon="-0.26893">
        <ele>-19.6</ele>
        <time>2017-11-12T13:55:00Z</time>
      </trkpt>
      <trkpt lat="44.92699" lon="-0.26889">
        <ele>-19.9</ele>
        <time>2017-11-12T13:55:07Z</time>
      </trkpt>
      <trkpt lat="44.92691" lon="-0.26885">
        <ele>-19.8</ele>
        <time>2017-11-12T13:55:14Z</time>
      </trkpt>
      <trkpt lat="44.92683" lon="-0.26882">
        <ele>-19.8</ele>
        <time>2017-11-12T13:55:22Z</time>
      </trkpt>
      <trkpt lat="44.92674" lon="-0.26883">
        <ele>-21.6</ele>
        <time>2017-11-12T13:55:31Z</time>
      </trkpt>
      <trkpt lat="44.92665" lon="-0.26884">
        <ele>-22.9</ele>
        <time>2017-11-12T13:55:42Z</time>
      </trkpt>
      <trkpt lat="44.92657" lon="-0.26886">
        <ele>-23</ele>
        <time>2017-11-12T13:55:50Z</time>
      </trkpt>
      <trkpt lat="44.92648" lon="-0.26886">
        <ele>-23.6</ele>
        <time>2017-11-12T13:56:00Z</time>
      </trkpt>
      <trkpt lat="44.9264" lon="-0.26888">
        <ele>-23.7</ele>
        <time>2017-11-12T13:56:08Z</time>
      </trkpt>
      <trkpt lat="44.92631" lon="-0.26889">
        <ele>-24.8</ele>
        <time>2017-11-12T13:56:15Z</time>
      </trkpt>
      <trkpt lat="44.92623" lon="-0.26891">
        <ele>-24.6</ele>
        <time>2017-11-12T13:56:21Z</time>
      </trkpt>
      <trkpt lat="44.92615" lon="-0.26893">
        <ele>-25.1</ele>
        <time>2017-11-12T13:56:29Z</time>
      </trkpt>
      <trkpt lat="44.92606" lon="-0.26893">
        <ele>-25.6</ele>
        <time>2017-11-12T13:56:38Z</time>
      </trkpt>
      <trkpt lat="44.92598" lon="-0.26895">
        <ele>-23.5</ele>
        <time>2017-11-12T13:56:48Z</time>
      </trkpt>
      <trkpt lat="44.92589" lon="-0.26896">
        <ele>-19.2</ele>
        <time>2017-11-12T13:57:17Z</time>
      </trkpt>
      <trkpt lat="44.92585" lon="-0.26886">
        <ele>-17.5</ele>
        <time>2017-11-12T13:57:26Z</time>
      </trkpt>
      <trkpt lat="44.92582" lon="-0.26875">
        <ele>-16.1</ele>
        <time>2017-11-12T13:57:34Z</time>
      </trkpt>
      <trkpt lat="44.92581" lon="-0.26864">
        <ele>-17.4</ele>
        <time>2017-11-12T13:57:43Z</time>
      </trkpt>
      <trkpt lat="44.9258" lon="-0.26853">
        <ele>-18.6</ele>
        <time>2017-11-12T13:57:51Z</time>
      </trkpt>
      <trkpt lat="44.92578" lon="-0.26841">
        <ele>-19.4</ele>
        <time>2017-11-12T13:58:00Z</time>
      </trkpt>
      <trkpt lat="44.92577" lon="-0.2683">
        <ele>-17.2</ele>
        <time>2017-11-12T13:58:07Z</time>
      </trkpt>
      <trkpt lat="44.92575" lon="-0.26818">
        <ele>-14.9</ele>
        <time>2017-11-12T13:58:14Z</time>
      </trkpt>
      <trkpt lat="44.92574" lon="-0.26806">
        <ele>-13.2</ele>
        <time>2017-11-12T13:58:21Z</time>
      </trkpt>
      <trkpt lat="44.9257" lon="-0.26795">
        <ele>-12.5</ele>
        <time>2017-11-12T13:58:28Z</time>
      </trkpt>
      <trkpt lat="44.92571" lon="-0.26783">
        <ele>-15.5</ele>
        <time>2017-11-12T13:58:46Z</time>
      </trkpt>
      <trkpt lat="44.92564" lon="-0.26776">
        <ele>-16.1</ele>
        <time>2017-11-12T13:58:58Z</time>
      </trkpt>
      <trkpt lat="44.92557" lon="-0.2677">
        <ele>-15.9</ele>
        <time>2017-11-12T13:59:06Z</time>
      </trkpt>
      <trkpt lat="44.92549" lon="-0.26766">
        <ele>-17.5</ele>
        <time>2017-11-12T13:59:15Z</time>
      </trkpt>
      <trkpt lat="44.92541" lon="-0.26764">
        <ele>-18.2</ele>
        <time>2017-11-12T13:59:22Z</time>
      </trkpt>
      <trkpt lat="44.92533" lon="-0.26765">
        <ele>-15.8</ele>
        <time>2017-11-12T13:59:29Z</time>
      </trkpt>
      <trkpt lat="44.92525" lon="-0.26764">
        <ele>-15.4</ele>
        <time>2017-11-12T13:59:36Z</time>
      </trkpt>
      <trkpt lat="44.92517" lon="-0.26763">
        <ele>-15.6</ele>
        <time>2017-11-12T13:59:42Z</time>
      </trkpt>
      <trkpt lat="44.92509" lon="-0.26764">
        <ele>-15.2</ele>
        <time>2017-11-12T13:59:51Z</time>
      </trkpt>
      <trkpt lat="44.925" lon="-0.26764">
        <ele>-15</ele>
        <time>2017-11-12T13:59:59Z</time>
      </trkpt>
      <trkpt lat="44.92493" lon="-0.26764">
        <ele>-16.1</ele>
        <time>2017-11-12T14:00:06Z</time>
      </trkpt>
      <trkpt lat="44.92484" lon="-0.26765">
        <ele>-15.9</ele>
        <time>2017-11-12T14:00:14Z</time>
      </trkpt>
      <trkpt lat="44.92476" lon="-0.26763">
        <ele>-14.8</ele>
        <time>2017-11-12T14:00:20Z</time>
      </trkpt>
      <trkpt lat="44.92467" lon="-0.26762">
        <ele>-13.7</ele>
        <time>2017-11-12T14:00:27Z</time>
      </trkpt>
      <trkpt lat="44.92458" lon="-0.26763">
        <ele>-14.3</ele>
        <time>2017-11-12T14:00:36Z</time>
      </trkpt>
      <trkpt lat="44.9245" lon="-0.26765">
        <ele>-14.1</ele>
        <time>2017-11-12T14:00:44Z</time>
      </trkpt>
      <trkpt lat="44.92442" lon="-0.26765">
        <ele>-16.1</ele>
        <time>2017-11-12T14:00:53Z</time>
      </trkpt>
      <trkpt lat="44.92433" lon="-0.26765">
        <ele>-15.2</ele>
        <time>2017-11-12T14:01:01Z</time>
      </trkpt>
      <trkpt lat="44.92425" lon="-0.26766">
        <ele>-14.4</ele>
        <time>2017-11-12T14:01:09Z</time>
      </trkpt>
      <trkpt lat="44.92417" lon="-0.26765">
        <ele>-15</ele>
        <time>2017-11-12T14:01:16Z</time>
      </trkpt>
      <trkpt lat="44.92409" lon="-0.26766">
        <ele>-16.4</ele>
        <time>2017-11-12T14:01:23Z</time>
      </trkpt>
      <trkpt lat="44.924" lon="-0.26768">
        <ele>-16</ele>
        <time>2017-11-12T14:01:29Z</time>
      </trkpt>
      <trkpt lat="44.92392" lon="-0.2677">
        <ele>-16.7</ele>
        <time>2017-11-12T14:01:36Z</time>
      </trkpt>
      <trkpt lat="44.92384" lon="-0.26769">
        <ele>-18.1</ele>
        <time>2017-11-12T14:01:43Z</time>
      </trkpt>
      <trkpt lat="44.92376" lon="-0.2677">
        <ele>-17.6</ele>
        <time>2017-11-12T14:01:49Z</time>
      </trkpt>
      <trkpt lat="44.92367" lon="-0.26773">
        <ele>-15.9</ele>
        <time>2017-11-12T14:01:56Z</time>
      </trkpt>
      <trkpt lat="44.9236" lon="-0.26776">
        <ele>-15.2</ele>
        <time>2017-11-12T14:02:03Z</time>
      </trkpt>
      <trkpt lat="44.92351" lon="-0.26778">
        <ele>-16.7</ele>
        <time>2017-11-12T14:02:11Z</time>
      </trkpt>
      <trkpt lat="44.92343" lon="-0.2678">
        <ele>-17.2</ele>
        <time>2017-11-12T14:02:17Z</time>
      </trkpt>
      <trkpt lat="44.92334" lon="-0.26782">
        <ele>-16.8</ele>
        <time>2017-11-12T14:02:24Z</time>
      </trkpt>
      <trkpt lat="44.92326" lon="-0.2678">
        <ele>-15.4</ele>
        <time>2017-11-12T14:02:30Z</time>
      </trkpt>
      <trkpt lat="44.92317" lon="-0.26784">
        <ele>-16.8</ele>
        <time>2017-11-12T14:02:38Z</time>
      </trkpt>
      <trkpt lat="44.92314" lon="-0.26796">
        <ele>-18.8</ele>
        <time>2017-11-12T14:02:45Z</time>
      </trkpt>
      <trkpt lat="44.92314" lon="-0.26808">
        <ele>-19.6</ele>
        <time>2017-11-12T14:02:52Z</time>
      </trkpt>
      <trkpt lat="44.92317" lon="-0.26819">
        <ele>-20.7</ele>
        <time>2017-11-12T14:02:59Z</time>
      </trkpt>
      <trkpt lat="44.9232" lon="-0.26831">
        <ele>-22</ele>
        <time>2017-11-12T14:03:06Z</time>
      </trkpt>
      <trkpt lat="44.92322" lon="-0.26842">
        <ele>-22</ele>
        <time>2017-11-12T14:03:12Z</time>
      </trkpt>
      <trkpt lat="44.92325" lon="-0.26854">
        <ele>-24.5</ele>
        <time>2017-11-12T14:03:20Z</time>
      </trkpt>
      <trkpt lat="44.92329" lon="-0.26864">
        <ele>-26.5</ele>
        <time>2017-11-12T14:03:27Z</time>
      </trkpt>
      <trkpt lat="44.92331" lon="-0.26876">
        <ele>-27.4</ele>
        <time>2017-11-12T14:03:34Z</time>
      </trkpt>
      <trkpt lat="44.92333" lon="-0.26886">
        <ele>-27.5</ele>
        <time>2017-11-12T14:03:39Z</time>
      </trkpt>
      <trkpt lat="44.92335" lon="-0.26898">
        <ele>-29.2</ele>
        <time>2017-11-12T14:03:45Z</time>
      </trkpt>
      <trkpt lat="44.92338" lon="-0.26909">
        <ele>-31</ele>
        <time>2017-11-12T14:03:53Z</time>
      </trkpt>
      <trkpt lat="44.92341" lon="-0.2692">
        <ele>-33.5</ele>
        <time>2017-11-12T14:04:01Z</time>
      </trkpt>
      <trkpt lat="44.92344" lon="-0.26931">
        <ele>-35.3</ele>
        <time>2017-11-12T14:04:08Z</time>
      </trkpt>
      <trkpt lat="44.92345" lon="-0.26943">
        <ele>-36</ele>
        <time>2017-11-12T14:04:15Z</time>
      </trkpt>
      <trkpt lat="44.92348" lon="-0.26954">
        <ele>-33.6</ele>
        <time>2017-11-12T14:04:22Z</time>
      </trkpt>
      <trkpt lat="44.92349" lon="-0.26965">
        <ele>-33.3</ele>
        <time>2017-11-12T14:04:28Z</time>
      </trkpt>
      <trkpt lat="44.92351" lon="-0.26977">
        <ele>-35.6</ele>
        <time>2017-11-12T14:04:35Z</time>
      </trkpt>
      <trkpt lat="44.92353" lon="-0.26989">
        <ele>-37.3</ele>
        <time>2017-11-12T14:04:42Z</time>
      </trkpt>
      <trkpt lat="44.92357" lon="-0.27">
        <ele>-37.6</ele>
        <time>2017-11-12T14:04:49Z</time>
      </trkpt>
      <trkpt lat="44.92361" lon="-0.2701">
        <ele>-38</ele>
        <time>2017-11-12T14:04:56Z</time>
      </trkpt>
      <trkpt lat="44.92365" lon="-0.2702">
        <ele>-37.6</ele>
        <time>2017-11-12T14:05:03Z</time>
      </trkpt>
      <trkpt lat="44.92369" lon="-0.27032">
        <ele>-38.6</ele>
        <time>2017-11-12T14:05:11Z</time>
      </trkpt>
      <trkpt lat="44.92371" lon="-0.27044">
        <ele>-40.2</ele>
        <time>2017-11-12T14:05:19Z</time>
      </trkpt>
      <trkpt lat="44.92371" lon="-0.27055">
        <ele>-40.6</ele>
        <time>2017-11-12T14:05:25Z</time>
      </trkpt>
      <trkpt lat="44.92374" lon="-0.27067">
        <ele>-41.1</ele>
        <time>2017-11-12T14:05:32Z</time>
      </trkpt>
      <trkpt lat="44.92378" lon="-0.27076">
        <ele>-45.1</ele>
        <time>2017-11-12T14:05:40Z</time>
      </trkpt>
      <trkpt lat="44.92379" lon="-0.27087">
        <ele>-49.4</ele>
        <time>2017-11-12T14:05:49Z</time>
      </trkpt>
      <trkpt lat="44.92388" lon="-0.27092">
        <ele>-56.8</ele>
        <time>2017-11-12T14:05:55Z</time>
      </trkpt>
      <trkpt lat="44.92391" lon="-0.27104">
        <ele>-58.3</ele>
        <time>2017-11-12T14:06:03Z</time>
      </trkpt>
      <trkpt lat="44.92391" lon="-0.27115">
        <ele>-53.1</ele>
        <time>2017-11-12T14:06:07Z</time>
      </trkpt>
      <trkpt lat="44.92391" lon="-0.27126">
        <ele>-47.8</ele>
        <time>2017-11-12T14:06:12Z</time>
      </trkpt>
      <trkpt lat="44.92394" lon="-0.27138">
        <ele>-43.2</ele>
        <time>2017-11-12T14:06:18Z</time>
      </trkpt>
      <trkpt lat="44.92398" lon="-0.27147">
        <ele>-39</ele>
        <time>2017-11-12T14:06:23Z</time>
      </trkpt>
      <trkpt lat="44.92402" lon="-0.27157">
        <ele>-36</ele>
        <time>2017-11-12T14:06:29Z</time>
      </trkpt>
      <trkpt lat="44.92399" lon="-0.27169">
        <ele>-36.6</ele>
        <time>2017-11-12T14:06:35Z</time>
      </trkpt>
      <trkpt lat="44.924" lon="-0.2718">
        <ele>-38.7</ele>
        <time>2017-11-12T14:06:41Z</time>
      </trkpt>
      <trkpt lat="44.92399" lon="-0.27191">
        <ele>-46.9</ele>
        <time>2017-11-12T14:06:48Z</time>
      </trkpt>
      <trkpt lat="44.92401" lon="-0.27202">
        <ele>-54.1</ele>
        <time>2017-11-12T14:06:55Z</time>
      </trkpt>
      <trkpt lat="44.92402" lon="-0.27214">
        <ele>-52.1</ele>
        <time>2017-11-12T14:07:03Z</time>
      </trkpt>
      <trkpt lat="44.92405" lon="-0.27226">
        <ele>-48.6</ele>
        <time>2017-11-12T14:07:09Z</time>
      </trkpt>
      <trkpt lat="44.9241" lon="-0.27235">
        <ele>-48.3</ele>
        <time>2017-11-12T14:07:15Z</time>
      </trkpt>
      <trkpt lat="44.9241" lon="-0.27247">
        <ele>-46.5</ele>
        <time>2017-11-12T14:07:21Z</time>
      </trkpt>
      <trkpt lat="44.92415" lon="-0.27257">
        <ele>-41.5</ele>
        <time>2017-11-12T14:07:28Z</time>
      </trkpt>
      <trkpt lat="44.92416" lon="-0.27268">
        <ele>-35</ele>
        <time>2017-11-12T14:07:34Z</time>
      </trkpt>
      <trkpt lat="44.92424" lon="-0.27273">
        <ele>-37.7</ele>
        <time>2017-11-12T14:07:43Z</time>
      </trkpt>
      <trkpt lat="44.92429" lon="-0.27283">
        <ele>-43.7</ele>
        <time>2017-11-12T14:07:49Z</time>
      </trkpt>
      <trkpt lat="44.92424" lon="-0.27291">
        <ele>-43.2</ele>
        <time>2017-11-12T14:07:58Z</time>
      </trkpt>
      <trkpt lat="44.92429" lon="-0.273">
        <ele>-45.8</ele>
        <time>2017-11-12T14:08:03Z</time>
      </trkpt>
      <trkpt lat="44.92435" lon="-0.27307">
        <ele>-46.6</ele>
        <time>2017-11-12T14:08:11Z</time>
      </trkpt>
      <trkpt lat="44.92443" lon="-0.27309">
        <ele>-47.2</ele>
        <time>2017-11-12T14:08:22Z</time>
      </trkpt>
      <trkpt lat="44.92451" lon="-0.2731">
        <ele>-45.8</ele>
        <time>2017-11-12T14:08:28Z</time>
      </trkpt>
      <trkpt lat="44.92459" lon="-0.27311">
        <ele>-47.3</ele>
        <time>2017-11-12T14:08:33Z</time>
      </trkpt>
      <trkpt lat="44.92468" lon="-0.27309">
        <ele>-58.5</ele>
        <time>2017-11-12T14:08:42Z</time>
      </trkpt>
      <trkpt lat="44.92475" lon="-0.27303">
        <ele>-60.4</ele>
        <time>2017-11-12T14:08:52Z</time>
      </trkpt>
      <trkpt lat="44.92484" lon="-0.27301">
        <ele>-53.2</ele>
        <time>2017-11-12T14:09:00Z</time>
      </trkpt>
      <trkpt lat="44.92494" lon="-0.27302">
        <ele>-48.6</ele>
        <time>2017-11-12T14:09:05Z</time>
      </trkpt>
      <trkpt lat="44.92498" lon="-0.27291">
        <ele>-53.1</ele>
        <time>2017-11-12T14:09:15Z</time>
      </trkpt>
      <trkpt lat="44.92506" lon="-0.27295">
        <ele>-53.7</ele>
        <time>2017-11-12T14:09:26Z</time>
      </trkpt>
      <trkpt lat="44.92513" lon="-0.27302">
        <ele>-50.2</ele>
        <time>2017-11-12T14:09:31Z</time>
      </trkpt>
      <trkpt lat="44.92521" lon="-0.27299">
        <ele>-49.5</ele>
        <time>2017-11-12T14:09:37Z</time>
      </trkpt>
      <trkpt lat="44.92529" lon="-0.27294">
        <ele>-46.1</ele>
        <time>2017-11-12T14:09:44Z</time>
      </trkpt>
      <trkpt lat="44.92537" lon="-0.27292">
        <ele>-42.6</ele>
        <time>2017-11-12T14:09:51Z</time>
      </trkpt>
      <trkpt lat="44.92546" lon="-0.27291">
        <ele>-38</ele>
        <time>2017-11-12T14:09:58Z</time>
      </trkpt>
      <trkpt lat="44.92551" lon="-0.27282">
        <ele>-26</ele>
        <time>2017-11-12T14:10:24Z</time>
      </trkpt>
      <trkpt lat="44.9256" lon="-0.27281">
        <ele>-26.4</ele>
        <time>2017-11-12T14:10:32Z</time>
      </trkpt>
      <trkpt lat="44.92568" lon="-0.27283">
        <ele>-29.5</ele>
        <time>2017-11-12T14:10:39Z</time>
      </trkpt>
      <trkpt lat="44.92576" lon="-0.27283">
        <ele>-28.6</ele>
        <time>2017-11-12T14:10:45Z</time>
      </trkpt>
      <trkpt lat="44.92584" lon="-0.27284">
        <ele>-29.7</ele>
        <time>2017-11-12T14:10:51Z</time>
      </trkpt>
      <trkpt lat="44.92593" lon="-0.27283">
        <ele>-28.5</ele>
        <time>2017-11-12T14:10:58Z</time>
      </trkpt>
      <trkpt lat="44.92601" lon="-0.27285">
        <ele>-30.4</ele>
        <time>2017-11-12T14:11:05Z</time>
      </trkpt>
      <trkpt lat="44.92609" lon="-0.27284">
        <ele>-28.1</ele>
        <time>2017-11-12T14:11:15Z</time>
      </trkpt>
      <trkpt lat="44.92618" lon="-0.27284">
        <ele>-28.4</ele>
        <time>2017-11-12T14:11:23Z</time>
      </trkpt>
      <trkpt lat="44.92626" lon="-0.27287">
        <ele>-30.7</ele>
        <time>2017-11-12T14:11:31Z</time>
      </trkpt>
      <trkpt lat="44.92635" lon="-0.27287">
        <ele>-31.9</ele>
        <time>2017-11-12T14:11:38Z</time>
      </trkpt>
      <trkpt lat="44.92643" lon="-0.27288">
        <ele>-32.7</ele>
        <time>2017-11-12T14:11:45Z</time>
      </trkpt>
      <trkpt lat="44.92649" lon="-0.27296">
        <ele>-43.1</ele>
        <time>2017-11-12T14:11:54Z</time>
      </trkpt>
      <trkpt lat="44.92657" lon="-0.27302">
        <ele>-50.6</ele>
        <time>2017-11-12T14:12:02Z</time>
      </trkpt>
      <trkpt lat="44.92665" lon="-0.27302">
        <ele>-53.3</ele>
        <time>2017-11-12T14:12:09Z</time>
      </trkpt>
      <trkpt lat="44.92673" lon="-0.27304">
        <ele>-53.5</ele>
        <time>2017-11-12T14:12:16Z</time>
      </trkpt>
      <trkpt lat="44.9268" lon="-0.27298">
        <ele>-43.3</ele>
        <time>2017-11-12T14:12:27Z</time>
      </trkpt>
      <trkpt lat="44.92689" lon="-0.27299">
        <ele>-41.7</ele>
        <time>2017-11-12T14:12:34Z</time>
      </trkpt>
      <trkpt lat="44.92698" lon="-0.27298">
        <ele>-39.2</ele>
        <time>2017-11-12T14:12:41Z</time>
      </trkpt>
      <trkpt lat="44.92705" lon="-0.27302">
        <ele>-36.5</ele>
        <time>2017-11-12T14:12:47Z</time>
      </trkpt>
      <trkpt lat="44.92713" lon="-0.27307">
        <ele>-30.8</ele>
        <time>2017-11-12T14:12:54Z</time>
      </trkpt>
      <trkpt lat="44.92722" lon="-0.27307">
        <ele>-20.4</ele>
        <time>2017-11-12T14:13:08Z</time>
      </trkpt>
      <trkpt lat="44.9273" lon="-0.27312">
        <ele>-17.7</ele>
        <time>2017-11-12T14:13:18Z</time>
      </trkpt>
      <trkpt lat="44.92738" lon="-0.27316">
        <ele>-18.7</ele>
        <time>2017-11-12T14:13:26Z</time>
      </trkpt>
      <trkpt lat="44.92745" lon="-0.27319">
        <ele>-19.1</ele>
        <time>2017-11-12T14:13:35Z</time>
      </trkpt>
      <trkpt lat="44.92753" lon="-0.2732">
        <ele>-19.6</ele>
        <time>2017-11-12T14:13:42Z</time>
      </trkpt>
      <trkpt lat="44.92761" lon="-0.27322">
        <ele>-19.6</ele>
        <time>2017-11-12T14:13:48Z</time>
      </trkpt>
      <trkpt lat="44.92769" lon="-0.27325">
        <ele>-20.9</ele>
        <time>2017-11-12T14:13:56Z</time>
      </trkpt>
      <trkpt lat="44.92777" lon="-0.27328">
        <ele>-20.6</ele>
        <time>2017-11-12T14:14:02Z</time>
      </trkpt>
      <trkpt lat="44.92785" lon="-0.27332">
        <ele>-21</ele>
        <time>2017-11-12T14:14:09Z</time>
      </trkpt>
      <trkpt lat="44.92793" lon="-0.27335">
        <ele>-20.4</ele>
        <time>2017-11-12T14:14:16Z</time>
      </trkpt>
      <trkpt lat="44.92801" lon="-0.27336">
        <ele>-15.8</ele>
        <time>2017-11-12T14:14:30Z</time>
      </trkpt>
      <trkpt lat="44.92809" lon="-0.27341">
        <ele>-16.7</ele>
        <time>2017-11-12T14:14:36Z</time>
      </trkpt>
      <trkpt lat="44.92816" lon="-0.27347">
        <ele>-17.8</ele>
        <time>2017-11-12T14:14:45Z</time>
      </trkpt>
      <trkpt lat="44.92823" lon="-0.27354">
        <ele>-18</ele>
        <time>2017-11-12T14:14:52Z</time>
      </trkpt>
      <trkpt lat="44.92822" lon="-0.27366">
        <ele>-22.9</ele>
        <time>2017-11-12T14:15:04Z</time>
      </trkpt>
      <trkpt lat="44.92826" lon="-0.27377">
        <ele>-22</ele>
        <time>2017-11-12T14:15:14Z</time>
      </trkpt>
      <trkpt lat="44.92826" lon="-0.27388">
        <ele>-22.4</ele>
        <time>2017-11-12T14:15:23Z</time>
      </trkpt>
      <trkpt lat="44.92824" lon="-0.274">
        <ele>-22.7</ele>
        <time>2017-11-12T14:15:35Z</time>
      </trkpt>
      <trkpt lat="44.92823" lon="-0.27412">
        <ele>-21.7</ele>
        <time>2017-11-12T14:15:42Z</time>
      </trkpt>
      <trkpt lat="44.92821" lon="-0.27424">
        <ele>-20.1</ele>
        <time>2017-11-12T14:15:49Z</time>
      </trkpt>
      <trkpt lat="44.92819" lon="-0.27436">
        <ele>-18.6</ele>
        <time>2017-11-12T14:15:56Z</time>
      </trkpt>
      <trkpt lat="44.92822" lon="-0.27448">
        <ele>-17.1</ele>
        <time>2017-11-12T14:16:04Z</time>
      </trkpt>
      <trkpt lat="44.92826" lon="-0.27459">
        <ele>-16.5</ele>
        <time>2017-11-12T14:16:12Z</time>
      </trkpt>
      <trkpt lat="44.92829" lon="-0.2747">
        <ele>-15</ele>
        <time>2017-11-12T14:16:20Z</time>
      </trkpt>
      <trkpt lat="44.92833" lon="-0.2748">
        <ele>-14.1</ele>
        <time>2017-11-12T14:16:27Z</time>
      </trkpt>
      <trkpt lat="44.92838" lon="-0.27491">
        <ele>-14.8</ele>
        <time>2017-11-12T14:16:35Z</time>
      </trkpt>
      <trkpt lat="44.92841" lon="-0.27503">
        <ele>-15.8</ele>
        <time>2017-11-12T14:16:43Z</time>
      </trkpt>
      <trkpt lat="44.92841" lon="-0.27515">
        <ele>-15.5</ele>
        <time>2017-11-12T14:16:51Z</time>
      </trkpt>
      <trkpt lat="44.9284" lon="-0.27527">
        <ele>-13.7</ele>
        <time>2017-11-12T14:16:58Z</time>
      </trkpt>
      <trkpt lat="44.92842" lon="-0.27539">
        <ele>-12.5</ele>
        <time>2017-11-12T14:17:05Z</time>
      </trkpt>
      <trkpt lat="44.92845" lon="-0.2755">
        <ele>-12.4</ele>
        <time>2017-11-12T14:17:13Z</time>
      </trkpt>
      <trkpt lat="44.92845" lon="-0.27562">
        <ele>-3.8</ele>
        <time>2017-11-12T14:17:26Z</time>
      </trkpt>
      <trkpt lat="44.92845" lon="-0.27574">
        <ele>-1.8</ele>
        <time>2017-11-12T14:17:35Z</time>
      </trkpt>
      <trkpt lat="44.92847" lon="-0.27585">
        <ele>-1.7</ele>
        <time>2017-11-12T14:17:43Z</time>
      </trkpt>
      <trkpt lat="44.92847" lon="-0.27598">
        <ele>-2</ele>
        <time>2017-11-12T14:17:51Z</time>
      </trkpt>
      <trkpt lat="44.92849" lon="-0.2761">
        <ele>-6.3</ele>
        <time>2017-11-12T14:17:59Z</time>
      </trkpt>
      <trkpt lat="44.92851" lon="-0.27621">
        <ele>-10.2</ele>
        <time>2017-11-12T14:18:07Z</time>
      </trkpt>
      <trkpt lat="44.92855" lon="-0.27632">
        <ele>-10.2</ele>
        <time>2017-11-12T14:18:15Z</time>
      </trkpt>
      <trkpt lat="44.92858" lon="-0.27642">
        <ele>-12.5</ele>
        <time>2017-11-12T14:18:22Z</time>
      </trkpt>
      <trkpt lat="44.92861" lon="-0.27654">
        <ele>-12.2</ele>
        <time>2017-11-12T14:18:30Z</time>
      </trkpt>
      <trkpt lat="44.92866" lon="-0.27662">
        <ele>-12.8</ele>
        <time>2017-11-12T14:18:36Z</time>
      </trkpt>
      <trkpt lat="44.92871" lon="-0.27671">
        <ele>-12.1</ele>
        <time>2017-11-12T14:18:42Z</time>
      </trkpt>
      <trkpt lat="44.92877" lon="-0.2768">
        <ele>-12.1</ele>
        <time>2017-11-12T14:18:52Z</time>
      </trkpt>
      <trkpt lat="44.92884" lon="-0.27687">
        <ele>-13.1</ele>
        <time>2017-11-12T14:19:00Z</time>
      </trkpt>
      <trkpt lat="44.92891" lon="-0.27694">
        <ele>-10.2</ele>
        <time>2017-11-12T14:19:06Z</time>
      </trkpt>
      <trkpt lat="44.92898" lon="-0.27701">
        <ele>-6.9</ele>
        <time>2017-11-12T14:19:12Z</time>
      </trkpt>
      <trkpt lat="44.92904" lon="-0.27708">
        <ele>-6.9</ele>
        <time>2017-11-12T14:19:18Z</time>
      </trkpt>
      <trkpt lat="44.92911" lon="-0.27713">
        <ele>-6.1</ele>
        <time>2017-11-12T14:19:24Z</time>
      </trkpt>
      <trkpt lat="44.92918" lon="-0.27721">
        <ele>-3.9</ele>
        <time>2017-11-12T14:19:32Z</time>
      </trkpt>
      <trkpt lat="44.92925" lon="-0.27728">
        <ele>-5.1</ele>
        <time>2017-11-12T14:19:39Z</time>
      </trkpt>
      <trkpt lat="44.92932" lon="-0.27733">
        <ele>-6.1</ele>
        <time>2017-11-12T14:19:47Z</time>
      </trkpt>
      <trkpt lat="44.92938" lon="-0.27741">
        <ele>-11.6</ele>
        <time>2017-11-12T14:19:55Z</time>
      </trkpt>
      <trkpt lat="44.92945" lon="-0.27748">
        <ele>-14.4</ele>
        <time>2017-11-12T14:20:04Z</time>
      </trkpt>
      <trkpt lat="44.92952" lon="-0.27753">
        <ele>-12.3</ele>
        <time>2017-11-12T14:20:10Z</time>
      </trkpt>
      <trkpt lat="44.9296" lon="-0.27759">
        <ele>-10.6</ele>
        <time>2017-11-12T14:20:17Z</time>
      </trkpt>
      <trkpt lat="44.92967" lon="-0.27766">
        <ele>-11.6</ele>
        <time>2017-11-12T14:20:25Z</time>
      </trkpt>
      <trkpt lat="44.92975" lon="-0.27769">
        <ele>-11.3</ele>
        <time>2017-11-12T14:20:32Z</time>
      </trkpt>
      <trkpt lat="44.92982" lon="-0.27775">
        <ele>-10.4</ele>
        <time>2017-11-12T14:20:39Z</time>
      </trkpt>
      <trkpt lat="44.92985" lon="-0.27786">
        <ele>-10.1</ele>
        <time>2017-11-12T14:20:45Z</time>
      </trkpt>
      <trkpt lat="44.92985" lon="-0.27798">
        <ele>-10</ele>
        <time>2017-11-12T14:20:52Z</time>
      </trkpt>
      <trkpt lat="44.92984" lon="-0.27809">
        <ele>-15.1</ele>
        <time>2017-11-12T14:20:59Z</time>
      </trkpt>
      <trkpt lat="44.92983" lon="-0.27821">
        <ele>-15.4</ele>
        <time>2017-11-12T14:21:06Z</time>
      </trkpt>
      <trkpt lat="44.92982" lon="-0.27833">
        <ele>-15</ele>
        <time>2017-11-12T14:21:14Z</time>
      </trkpt>
      <trkpt lat="44.92983" lon="-0.27845">
        <ele>-11.6</ele>
        <time>2017-11-12T14:21:22Z</time>
      </trkpt>
      <trkpt lat="44.92984" lon="-0.27857">
        <ele>-12.4</ele>
        <time>2017-11-12T14:21:29Z</time>
      </trkpt>
      <trkpt lat="44.92983" lon="-0.27869">
        <ele>-12.4</ele>
        <time>2017-11-12T14:21:37Z</time>
      </trkpt>
      <trkpt lat="44.92986" lon="-0.2788">
        <ele>-12.7</ele>
        <time>2017-11-12T14:21:47Z</time>
      </trkpt>
      <trkpt lat="44.92986" lon="-0.27892">
        <ele>-14</ele>
        <time>2017-11-12T14:21:53Z</time>
      </trkpt>
      <trkpt lat="44.92986" lon="-0.27903">
        <ele>-13.7</ele>
        <time>2017-11-12T14:21:58Z</time>
      </trkpt>
      <trkpt lat="44.92986" lon="-0.27914">
        <ele>-14.7</ele>
        <time>2017-11-12T14:22:04Z</time>
      </trkpt>
      <trkpt lat="44.92988" lon="-0.27926">
        <ele>-16.2</ele>
        <time>2017-11-12T14:22:11Z</time>
      </trkpt>
      <trkpt lat="44.92988" lon="-0.27937">
        <ele>-17.8</ele>
        <time>2017-11-12T14:22:17Z</time>
      </trkpt>
      <trkpt lat="44.92988" lon="-0.27949">
        <ele>-19.9</ele>
        <time>2017-11-12T14:22:24Z</time>
      </trkpt>
      <trkpt lat="44.92989" lon="-0.27961">
        <ele>-19.6</ele>
        <time>2017-11-12T14:22:31Z</time>
      </trkpt>
      <trkpt lat="44.92989" lon="-0.27974">
        <ele>-19.8</ele>
        <time>2017-11-12T14:22:38Z</time>
      </trkpt>
      <trkpt lat="44.92987" lon="-0.27986">
        <ele>-20.4</ele>
        <time>2017-11-12T14:22:45Z</time>
      </trkpt>
      <trkpt lat="44.92988" lon="-0.27997">
        <ele>-21.3</ele>
        <time>2017-11-12T14:22:52Z</time>
      </trkpt>
      <trkpt lat="44.92989" lon="-0.28009">
        <ele>-22.7</ele>
        <time>2017-11-12T14:22:59Z</time>
      </trkpt>
      <trkpt lat="44.92989" lon="-0.28021">
        <ele>-24.3</ele>
        <time>2017-11-12T14:23:06Z</time>
      </trkpt>
      <trkpt lat="44.9299" lon="-0.28033">
        <ele>-25.8</ele>
        <time>2017-11-12T14:23:12Z</time>
      </trkpt>
      <trkpt lat="44.92988" lon="-0.28045">
        <ele>-28.3</ele>
        <time>2017-11-12T14:23:20Z</time>
      </trkpt>
      <trkpt lat="44.92989" lon="-0.28056">
        <ele>-28</ele>
        <time>2017-11-12T14:23:26Z</time>
      </trkpt>
      <trkpt lat="44.92989" lon="-0.28068">
        <ele>-27.3</ele>
        <time>2017-11-12T14:23:32Z</time>
      </trkpt>
      <trkpt lat="44.92989" lon="-0.28079">
        <ele>-26.6</ele>
        <time>2017-11-12T14:23:38Z</time>
      </trkpt>
      <trkpt lat="44.92989" lon="-0.28091">
        <ele>-27.3</ele>
        <time>2017-11-12T14:23:45Z</time>
      </trkpt>
      <trkpt lat="44.92988" lon="-0.28103">
        <ele>-29.6</ele>
        <time>2017-11-12T14:23:52Z</time>
      </trkpt>
      <trkpt lat="44.9299" lon="-0.28114">
        <ele>-28.9</ele>
        <time>2017-11-12T14:23:59Z</time>
      </trkpt>
      <trkpt lat="44.9299" lon="-0.28125">
        <ele>-28.7</ele>
        <time>2017-11-12T14:24:06Z</time>
      </trkpt>
      <trkpt lat="44.9299" lon="-0.28137">
        <ele>-28.8</ele>
        <time>2017-11-12T14:24:13Z</time>
      </trkpt>
      <trkpt lat="44.92991" lon="-0.28149">
        <ele>-28.4</ele>
        <time>2017-11-12T14:24:20Z</time>
      </trkpt>
      <trkpt lat="44.92993" lon="-0.28161">
        <ele>-29.1</ele>
        <time>2017-11-12T14:24:28Z</time>
      </trkpt>
      <trkpt lat="44.92994" lon="-0.28173">
        <ele>-30.9</ele>
        <time>2017-11-12T14:24:37Z</time>
      </trkpt>
      <trkpt lat="44.92995" lon="-0.28185">
        <ele>-30.7</ele>
        <time>2017-11-12T14:24:44Z</time>
      </trkpt>
      <trkpt lat="44.92996" lon="-0.28197">
        <ele>-30.5</ele>
        <time>2017-11-12T14:24:52Z</time>
      </trkpt>
      <trkpt lat="44.92995" lon="-0.28208">
        <ele>-30.7</ele>
        <time>2017-11-12T14:24:58Z</time>
      </trkpt>
      <trkpt lat="44.92995" lon="-0.2822">
        <ele>-29.5</ele>
        <time>2017-11-12T14:25:05Z</time>
      </trkpt>
      <trkpt lat="44.92994" lon="-0.28232">
        <ele>-29.5</ele>
        <time>2017-11-12T14:25:12Z</time>
      </trkpt>
      <trkpt lat="44.92994" lon="-0.28244">
        <ele>-30</ele>
        <time>2017-11-12T14:25:19Z</time>
      </trkpt>
      <trkpt lat="44.92993" lon="-0.28255">
        <ele>-29.8</ele>
        <time>2017-11-12T14:25:27Z</time>
      </trkpt>
      <trkpt lat="44.92994" lon="-0.28268">
        <ele>-32.1</ele>
        <time>2017-11-12T14:25:34Z</time>
      </trkpt>
      <trkpt lat="44.92994" lon="-0.28279">
        <ele>-34.2</ele>
        <time>2017-11-12T14:25:40Z</time>
      </trkpt>
      <trkpt lat="44.92995" lon="-0.2829">
        <ele>-33.2</ele>
        <time>2017-11-12T14:25:48Z</time>
      </trkpt>
      <trkpt lat="44.92995" lon="-0.28302">
        <ele>-29.9</ele>
        <time>2017-11-12T14:25:55Z</time>
      </trkpt>
      <trkpt lat="44.92996" lon="-0.28314">
        <ele>-29.4</ele>
        <time>2017-11-12T14:26:02Z</time>
      </trkpt>
      <trkpt lat="44.92995" lon="-0.28326">
        <ele>-31.7</ele>
        <time>2017-11-12T14:26:09Z</time>
      </trkpt>
      <trkpt lat="44.92994" lon="-0.28338">
        <ele>-31.4</ele>
        <time>2017-11-12T14:26:16Z</time>
      </trkpt>
      <trkpt lat="44.92992" lon="-0.2835">
        <ele>-29.9</ele>
        <time>2017-11-12T14:26:23Z</time>
      </trkpt>
      <trkpt lat="44.92991" lon="-0.28361">
        <ele>-27.9</ele>
        <time>2017-11-12T14:26:29Z</time>
      </trkpt>
      <trkpt lat="44.92989" lon="-0.28373">
        <ele>-25.7</ele>
        <time>2017-11-12T14:26:38Z</time>
      </trkpt>
      <trkpt lat="44.92988" lon="-0.28384">
        <ele>-23.6</ele>
        <time>2017-11-12T14:26:44Z</time>
      </trkpt>
      <trkpt lat="44.92987" lon="-0.28396">
        <ele>-23.5</ele>
        <time>2017-11-12T14:26:51Z</time>
      </trkpt>
      <trkpt lat="44.92986" lon="-0.28408">
        <ele>-24</ele>
        <time>2017-11-12T14:26:59Z</time>
      </trkpt>
      <trkpt lat="44.92985" lon="-0.28419">
        <ele>-24.6</ele>
        <time>2017-11-12T14:27:06Z</time>
      </trkpt>
      <trkpt lat="44.92984" lon="-0.28431">
        <ele>-26.9</ele>
        <time>2017-11-12T14:27:12Z</time>
      </trkpt>
      <trkpt lat="44.9298" lon="-0.28441">
        <ele>-27.6</ele>
        <time>2017-11-12T14:27:19Z</time>
      </trkpt>
      <trkpt lat="44.92976" lon="-0.28452">
        <ele>-29</ele>
        <time>2017-11-12T14:27:28Z</time>
      </trkpt>
      <trkpt lat="44.92972" lon="-0.28463">
        <ele>-31.1</ele>
        <time>2017-11-12T14:27:39Z</time>
      </trkpt>
      <trkpt lat="44.92968" lon="-0.28472">
        <ele>-32.8</ele>
        <time>2017-11-12T14:27:46Z</time>
      </trkpt>
      <trkpt lat="44.92963" lon="-0.28482">
        <ele>-33.2</ele>
        <time>2017-11-12T14:27:53Z</time>
      </trkpt>
      <trkpt lat="44.9296" lon="-0.28493">
        <ele>-32.4</ele>
        <time>2017-11-12T14:27:59Z</time>
      </trkpt>
      <trkpt lat="44.92961" lon="-0.28505">
        <ele>-32.7</ele>
        <time>2017-11-12T14:28:07Z</time>
      </trkpt>
      <trkpt lat="44.9296" lon="-0.28517">
        <ele>-33.5</ele>
        <time>2017-11-12T14:28:16Z</time>
      </trkpt>
      <trkpt lat="44.92958" lon="-0.2853">
        <ele>-33.9</ele>
        <time>2017-11-12T14:28:25Z</time>
      </trkpt>
      <trkpt lat="44.92964" lon="-0.2854">
        <ele>-35</ele>
        <time>2017-11-12T14:28:35Z</time>
      </trkpt>
      <trkpt lat="44.92972" lon="-0.28546">
        <ele>-31.8</ele>
        <time>2017-11-12T14:28:45Z</time>
      </trkpt>
      <trkpt lat="44.9298" lon="-0.28549">
        <ele>-28.5</ele>
        <time>2017-11-12T14:28:53Z</time>
      </trkpt>
      <trkpt lat="44.92987" lon="-0.28554">
        <ele>-28.1</ele>
        <time>2017-11-12T14:29:03Z</time>
      </trkpt>
      <trkpt lat="44.92995" lon="-0.28559">
        <ele>-29.4</ele>
        <time>2017-11-12T14:29:11Z</time>
      </trkpt>
      <trkpt lat="44.93003" lon="-0.28562">
        <ele>-28.4</ele>
        <time>2017-11-12T14:29:18Z</time>
      </trkpt>
      <trkpt lat="44.9301" lon="-0.28566">
        <ele>-26.7</ele>
        <time>2017-11-12T14:29:26Z</time>
      </trkpt>
      <trkpt lat="44.93018" lon="-0.28569">
        <ele>-26.2</ele>
        <time>2017-11-12T14:29:37Z</time>
      </trkpt>
      <trkpt lat="44.93027" lon="-0.28573">
        <ele>-23.1</ele>
        <time>2017-11-12T14:29:45Z</time>
      </trkpt>
      <trkpt lat="44.93035" lon="-0.28573">
        <ele>-23.1</ele>
        <time>2017-11-12T14:29:56Z</time>
      </trkpt>
      <trkpt lat="44.93043" lon="-0.28576">
        <ele>-22.9</ele>
        <time>2017-11-12T14:30:04Z</time>
      </trkpt>
      <trkpt lat="44.93051" lon="-0.2858">
        <ele>-25.4</ele>
        <time>2017-11-12T14:30:14Z</time>
      </trkpt>
      <trkpt lat="44.9306" lon="-0.28583">
        <ele>-27.8</ele>
        <time>2017-11-12T14:30:27Z</time>
      </trkpt>
      <trkpt lat="44.93069" lon="-0.28586">
        <ele>-26.8</ele>
        <time>2017-11-12T14:30:35Z</time>
      </trkpt>
      <trkpt lat="44.93077" lon="-0.28589">
        <ele>-25</ele>
        <time>2017-11-12T14:30:44Z</time>
      </trkpt>
      <trkpt lat="44.93083" lon="-0.28597">
        <ele>-27</ele>
        <time>2017-11-12T14:30:51Z</time>
      </trkpt>
      <trkpt lat="44.93091" lon="-0.28601">
        <ele>-25.7</ele>
        <time>2017-11-12T14:30:58Z</time>
      </trkpt>
      <trkpt lat="44.931" lon="-0.28602">
        <ele>-17.1</ele>
        <time>2017-11-12T14:31:16Z</time>
      </trkpt>
      <trkpt lat="44.93108" lon="-0.28606">
        <ele>-12.4</ele>
        <time>2017-11-12T14:31:26Z</time>
      </trkpt>
      <trkpt lat="44.93115" lon="-0.2861">
        <ele>-10.9</ele>
        <time>2017-11-12T14:31:33Z</time>
      </trkpt>
      <trkpt lat="44.93123" lon="-0.28614">
        <ele>-12.2</ele>
        <time>2017-11-12T14:31:42Z</time>
      </trkpt>
      <trkpt lat="44.9313" lon="-0.28619">
        <ele>-9.4</ele>
        <time>2017-11-12T14:31:55Z</time>
      </trkpt>
      <trkpt lat="44.93137" lon="-0.28628">
        <ele>-6.2</ele>
        <time>2017-11-12T14:32:05Z</time>
      </trkpt>
      <trkpt lat="44.93144" lon="-0.28634">
        <ele>-2.3</ele>
        <time>2017-11-12T14:32:18Z</time>
      </trkpt>
      <trkpt lat="44.93151" lon="-0.28642">
        <ele>-4.7</ele>
        <time>2017-11-12T14:32:29Z</time>
      </trkpt>
      <trkpt lat="44.93157" lon="-0.28645">
        <ele>-5.4</ele>
        <time>2017-11-12T14:35:02Z</time>
      </trkpt>
      <trkpt lat="44.93167" lon="-0.28644">
        <ele>5.9</ele>
        <time>2017-11-12T14:35:07Z</time>
      </trkpt>
      <trkpt lat="44.93174" lon="-0.28638">
        <ele>6.2</ele>
        <time>2017-11-12T14:35:14Z</time>
      </trkpt>
      <trkpt lat="44.9318" lon="-0.2863">
        <ele>5.3</ele>
        <time>2017-11-12T14:35:21Z</time>
      </trkpt>
      <trkpt lat="44.93186" lon="-0.28623">
        <ele>0.8</ele>
        <time>2017-11-12T14:35:26Z</time>
      </trkpt>
      <trkpt lat="44.93193" lon="-0.28616">
        <ele>-1.5</ele>
        <time>2017-11-12T14:35:32Z</time>
      </trkpt>
      <trkpt lat="44.93199" lon="-0.28608">
        <ele>-2.7</ele>
        <time>2017-11-12T14:35:41Z</time>
      </trkpt>
      <trkpt lat="44.93206" lon="-0.286">
        <ele>-4.1</ele>
        <time>2017-11-12T14:35:50Z</time>
      </trkpt>
      <trkpt lat="44.93212" lon="-0.28592">
        <ele>-3.6</ele>
        <time>2017-11-12T14:35:57Z</time>
      </trkpt>
      <trkpt lat="44.93216" lon="-0.28582">
        <ele>-2.7</ele>
        <time>2017-11-12T14:36:07Z</time>
      </trkpt>
      <trkpt lat="44.93222" lon="-0.28573">
        <ele>-0.1</ele>
        <time>2017-11-12T14:36:16Z</time>
      </trkpt>
      <trkpt lat="44.93227" lon="-0.28565">
        <ele>0.2</ele>
        <time>2017-11-12T14:36:24Z</time>
      </trkpt>
      <trkpt lat="44.93234" lon="-0.28556">
        <ele>0.4</ele>
        <time>2017-11-12T14:36:32Z</time>
      </trkpt>
      <trkpt lat="44.93239" lon="-0.28547">
        <ele>-1.4</ele>
        <time>2017-11-12T14:36:39Z</time>
      </trkpt>
      <trkpt lat="44.93245" lon="-0.28538">
        <ele>-2.4</ele>
        <time>2017-11-12T14:36:46Z</time>
      </trkpt>
      <trkpt lat="44.9325" lon="-0.28527">
        <ele>-0.1</ele>
        <time>2017-11-12T14:36:52Z</time>
      </trkpt>
      <trkpt lat="44.9325" lon="-0.28517">
        <ele>1.1</ele>
        <time>2017-11-12T14:36:58Z</time>
      </trkpt>
      <trkpt lat="44.9325" lon="-0.28504">
        <ele>1</ele>
        <time>2017-11-12T14:37:06Z</time>
      </trkpt>
      <trkpt lat="44.93248" lon="-0.28492">
        <ele>1.1</ele>
        <time>2017-11-12T14:37:13Z</time>
      </trkpt>
      <trkpt lat="44.93246" lon="-0.2848">
        <ele>1.6</ele>
        <time>2017-11-12T14:37:20Z</time>
      </trkpt>
      <trkpt lat="44.93243" lon="-0.28468">
        <ele>1</ele>
        <time>2017-11-12T14:37:27Z</time>
      </trkpt>
      <trkpt lat="44.93239" lon="-0.28458">
        <ele>0.3</ele>
        <time>2017-11-12T14:37:34Z</time>
      </trkpt>
      <trkpt lat="44.93237" lon="-0.28447">
        <ele>2.1</ele>
        <time>2017-11-12T14:37:42Z</time>
      </trkpt>
      <trkpt lat="44.93237" lon="-0.28434">
        <ele>4.2</ele>
        <time>2017-11-12T14:37:50Z</time>
      </trkpt>
      <trkpt lat="44.93239" lon="-0.28422">
        <ele>4.6</ele>
        <time>2017-11-12T14:37:58Z</time>
      </trkpt>
      <trkpt lat="44.93245" lon="-0.28413">
        <ele>3.3</ele>
        <time>2017-11-12T14:38:08Z</time>
      </trkpt>
      <trkpt lat="44.93253" lon="-0.28416">
        <ele>5.2</ele>
        <time>2017-11-12T14:38:20Z</time>
      </trkpt>
      <trkpt lat="44.93261" lon="-0.28421">
        <ele>5.2</ele>
        <time>2017-11-12T14:38:31Z</time>
      </trkpt>
      <trkpt lat="44.93269" lon="-0.28426">
        <ele>5.1</ele>
        <time>2017-11-12T14:38:41Z</time>
      </trkpt>
      <trkpt lat="44.93277" lon="-0.2843">
        <ele>6.4</ele>
        <time>2017-11-12T14:38:50Z</time>
      </trkpt>
      <trkpt lat="44.93281" lon="-0.2843">
        <ele>6.2</ele>
        <time>2017-11-12T14:39:20Z</time>
      </trkpt>
      <trkpt lat="44.9329" lon="-0.28428">
        <ele>4.4</ele>
        <time>2017-11-12T14:39:25Z</time>
      </trkpt>
      <trkpt lat="44.93295" lon="-0.28437">
        <ele>4.6</ele>
        <time>2017-11-12T14:40:54Z</time>
      </trkpt>
      <trkpt lat="44.93303" lon="-0.28439">
        <ele>10.3</ele>
        <time>2017-11-12T14:41:01Z</time>
      </trkpt>
      <trkpt lat="44.93311" lon="-0.28437">
        <ele>9.6</ele>
        <time>2017-11-12T14:41:08Z</time>
      </trkpt>
      <trkpt lat="44.93319" lon="-0.28438">
        <ele>7.3</ele>
        <time>2017-11-12T14:41:15Z</time>
      </trkpt>
      <trkpt lat="44.93327" lon="-0.28436">
        <ele>4.4</ele>
        <time>2017-11-12T14:41:21Z</time>
      </trkpt>
      <trkpt lat="44.93335" lon="-0.28431">
        <ele>5.5</ele>
        <time>2017-11-12T14:41:28Z</time>
      </trkpt>
      <trkpt lat="44.93344" lon="-0.28429">
        <ele>7.7</ele>
        <time>2017-11-12T14:41:37Z</time>
      </trkpt>
      <trkpt lat="44.93336" lon="-0.28429">
        <ele>3</ele>
        <time>2017-11-12T14:42:08Z</time>
      </trkpt>
      <trkpt lat="44.93328" lon="-0.28425">
        <ele>2.8</ele>
        <time>2017-11-12T14:42:16Z</time>
      </trkpt>
      <trkpt lat="44.93325" lon="-0.28415">
        <ele>5.6</ele>
        <time>2017-11-12T14:42:24Z</time>
      </trkpt>
      <trkpt lat="44.93323" lon="-0.28404">
        <ele>6.7</ele>
        <time>2017-11-12T14:42:32Z</time>
      </trkpt>
      <trkpt lat="44.93329" lon="-0.28394">
        <ele>5.2</ele>
        <time>2017-11-12T14:42:45Z</time>
      </trkpt>
      <trkpt lat="44.93321" lon="-0.28389">
        <ele>11</ele>
        <time>2017-11-12T14:44:35Z</time>
      </trkpt>
      <trkpt lat="44.93313" lon="-0.28387">
        <ele>15.7</ele>
        <time>2017-11-12T14:45:05Z</time>
      </trkpt>
      <trkpt lat="44.93308" lon="-0.28397">
        <ele>15.1</ele>
        <time>2017-11-12T14:45:19Z</time>
      </trkpt>
      <trkpt lat="44.93308" lon="-0.28409">
        <ele>11.1</ele>
        <time>2017-11-12T14:45:39Z</time>
      </trkpt>
      <trkpt lat="44.93304" lon="-0.2842">
        <ele>8.4</ele>
        <time>2017-11-12T14:45:50Z</time>
      </trkpt>
      <trkpt lat="44.93299" lon="-0.28429">
        <ele>10</ele>
        <time>2017-11-12T14:46:01Z</time>
      </trkpt>
      <trkpt lat="44.93298" lon="-0.2843">
        <ele>10.3</ele>
        <time>2017-11-12T14:47:03Z</time>
      </trkpt>
    </trkseg>
  </trk>
</gpx>